<?xml version="1.0" encoding="UTF-8" standalone="no" ?>
<gpx xmlns="http://www.topografix.com/GPX/1/1" xmlns:xsi="http://www.w3.org/2001/XMLSchema-instance" xsi:schemaLocation="http://www.topografix.com/GPX/1/1 http://www.topografix.com/GPX/1/1/gpx.xsd" version="1.1" creator="VisuGPX - https://www.visugpx.com">
  <metadata>
    <name>06-cd-2013-09-05-St-Jeannet--le-Baou-de-la-Gaude</name>
    <desc><![CDATA[
St-Jeannet--le-Baou-de-la-Gaude]]></desc>
  </metadata>
  <wpt lat="43.74881" lon="7.14472">
    <ele>396.97</ele>
    <name><![CDATA[0000135]]></name>
    <type><![CDATA[Point de départ]]></type>
  </wpt>
  <wpt lat="43.77468" lon="7.13902">
    <ele>792.79</ele>
    <name><![CDATA[0000136]]></name>
    <type><![CDATA[Point d'arrivée]]></type>
  </wpt>
  <wpt lat="43.77463" lon="7.13895">
    <ele>794.9</ele>
    <name><![CDATA[0000137]]></name>
    <type><![CDATA[Point de navigation]]></type>
  </wpt>
  <wpt lat="43.74883" lon="7.14481">
    <ele>409.36</ele>
    <name><![CDATA[0000138]]></name>
    <type><![CDATA[Point d'arrivée]]></type>
  </wpt>
  <trk>
    <name><![CDATA[2013-05-09 09:51]]></name>
    <desc><![CDATA[<h1>OruxMaps</h1><br /><hr align="center" width="480" style="height: 2px; width: 517px"/><h2>Nom: 2013-05-09 09:51</h2><br /><p>Temps de départ: 05/09/2013 09:51</p><p>Temps d'arrivée: 05/09/2013 16:30</p><p>Distance: 10,9 km (06:38)</p><p>Temps déplacement: 04:23</p><p>Vitesse moyenne: 1,6 km/h</p><p>Vitesse moyenne: 2,5 km/h</p><p>Vitess Max.: 9 km/h</p><p>Altitude minimale: 396 m</p><p>Altitude maximale: 840 m</p><p>Vitesse d'élévation: 175,5 m/h</p><p>Vitesse de descente: -224,9 m/h</p><p>Gain Altitude: 491 m</p><p>Perte Altitude: -503 m</p><p>Temps d'élévation: 02:48</p><p>Temps de descente: 02:14</p><hr align="center" width="480" style="height: 2px; width: 517px"/>]]></desc>
    <trkseg>
      <trkpt lat="43.74881" lon="7.14472">
        <ele>396.97</ele>
        <time>2013-05-09T07:51:37Z</time>
      </trkpt>
      <trkpt lat="43.74873" lon="7.14478">
        <ele>399.27</ele>
        <time>2013-05-09T07:52:07Z</time>
      </trkpt>
      <trkpt lat="43.74875" lon="7.14465">
        <ele>402.79</ele>
        <time>2013-05-09T07:53:07Z</time>
      </trkpt>
      <trkpt lat="43.74885" lon="7.14464">
        <ele>404.55</ele>
        <time>2013-05-09T07:53:55Z</time>
      </trkpt>
      <trkpt lat="43.74895" lon="7.14459">
        <ele>405.27</ele>
        <time>2013-05-09T07:54:07Z</time>
      </trkpt>
      <trkpt lat="43.74904" lon="7.1446">
        <ele>406.31</ele>
        <time>2013-05-09T07:54:52Z</time>
      </trkpt>
      <trkpt lat="43.74913" lon="7.14465">
        <ele>407.02</ele>
        <time>2013-05-09T07:55:01Z</time>
      </trkpt>
      <trkpt lat="43.74924" lon="7.14465">
        <ele>408.77</ele>
        <time>2013-05-09T07:55:16Z</time>
      </trkpt>
      <trkpt lat="43.74934" lon="7.14469">
        <ele>409.71</ele>
        <time>2013-05-09T07:55:25Z</time>
      </trkpt>
      <trkpt lat="43.74944" lon="7.14471">
        <ele>410.42</ele>
        <time>2013-05-09T07:55:37Z</time>
      </trkpt>
      <trkpt lat="43.74954" lon="7.14466">
        <ele>410.81</ele>
        <time>2013-05-09T07:55:49Z</time>
      </trkpt>
      <trkpt lat="43.74964" lon="7.14471">
        <ele>411.54</ele>
        <time>2013-05-09T07:56:01Z</time>
      </trkpt>
      <trkpt lat="43.74974" lon="7.14466">
        <ele>412.48</ele>
        <time>2013-05-09T07:56:10Z</time>
      </trkpt>
      <trkpt lat="43.74977" lon="7.14454">
        <ele>414.11</ele>
        <time>2013-05-09T07:56:22Z</time>
      </trkpt>
      <trkpt lat="43.74981" lon="7.14442">
        <ele>415.74</ele>
        <time>2013-05-09T07:56:46Z</time>
      </trkpt>
      <trkpt lat="43.74978" lon="7.1443">
        <ele>416.68</ele>
        <time>2013-05-09T07:57:07Z</time>
      </trkpt>
      <trkpt lat="43.74989" lon="7.14423">
        <ele>417.87</ele>
        <time>2013-05-09T07:57:19Z</time>
      </trkpt>
      <trkpt lat="43.74981" lon="7.14416">
        <ele>424.8</ele>
        <time>2013-05-09T07:58:19Z</time>
      </trkpt>
      <trkpt lat="43.74971" lon="7.14406">
        <ele>425.87</ele>
        <time>2013-05-09T07:58:28Z</time>
      </trkpt>
      <trkpt lat="43.7496" lon="7.14399">
        <ele>426.79</ele>
        <time>2013-05-09T07:58:37Z</time>
      </trkpt>
      <trkpt lat="43.74951" lon="7.14395">
        <ele>427.6</ele>
        <time>2013-05-09T07:58:46Z</time>
      </trkpt>
      <trkpt lat="43.74942" lon="7.14392">
        <ele>428.13</ele>
        <time>2013-05-09T07:58:52Z</time>
      </trkpt>
      <trkpt lat="43.74933" lon="7.14383">
        <ele>428.93</ele>
        <time>2013-05-09T07:59:01Z</time>
      </trkpt>
      <trkpt lat="43.74928" lon="7.14371">
        <ele>429.54</ele>
        <time>2013-05-09T07:59:10Z</time>
      </trkpt>
      <trkpt lat="43.74923" lon="7.14359">
        <ele>430</ele>
        <time>2013-05-09T07:59:16Z</time>
      </trkpt>
      <trkpt lat="43.74921" lon="7.14345">
        <ele>430.31</ele>
        <time>2013-05-09T07:59:22Z</time>
      </trkpt>
      <trkpt lat="43.7491" lon="7.14344">
        <ele>429.86</ele>
        <time>2013-05-09T07:59:31Z</time>
      </trkpt>
      <trkpt lat="43.74898" lon="7.14341">
        <ele>428.76</ele>
        <time>2013-05-09T07:59:40Z</time>
      </trkpt>
      <trkpt lat="43.74887" lon="7.14342">
        <ele>427.95</ele>
        <time>2013-05-09T07:59:49Z</time>
      </trkpt>
      <trkpt lat="43.74897" lon="7.14336">
        <ele>430.42</ele>
        <time>2013-05-09T08:00:22Z</time>
      </trkpt>
      <trkpt lat="43.74908" lon="7.14333">
        <ele>431.35</ele>
        <time>2013-05-09T08:00:28Z</time>
      </trkpt>
      <trkpt lat="43.749" lon="7.14326">
        <ele>436.41</ele>
        <time>2013-05-09T08:00:52Z</time>
      </trkpt>
      <trkpt lat="43.74907" lon="7.14314">
        <ele>441.67</ele>
        <time>2013-05-09T08:01:34Z</time>
      </trkpt>
      <trkpt lat="43.74915" lon="7.14307">
        <ele>443.15</ele>
        <time>2013-05-09T08:01:46Z</time>
      </trkpt>
      <trkpt lat="43.74922" lon="7.14298">
        <ele>444.25</ele>
        <time>2013-05-09T08:02:07Z</time>
      </trkpt>
      <trkpt lat="43.74919" lon="7.14285">
        <ele>445.76</ele>
        <time>2013-05-09T08:02:43Z</time>
      </trkpt>
      <trkpt lat="43.74915" lon="7.14282">
        <ele>447.3</ele>
        <time>2013-05-09T08:02:53Z</time>
      </trkpt>
      <trkpt lat="43.74905" lon="7.14281">
        <ele>447.89</ele>
        <time>2013-05-09T08:03:02Z</time>
      </trkpt>
      <trkpt lat="43.74893" lon="7.14281">
        <ele>449.26</ele>
        <time>2013-05-09T08:03:29Z</time>
      </trkpt>
      <trkpt lat="43.74883" lon="7.14276">
        <ele>450.08</ele>
        <time>2013-05-09T08:03:38Z</time>
      </trkpt>
      <trkpt lat="43.74873" lon="7.14271">
        <ele>450.92</ele>
        <time>2013-05-09T08:03:50Z</time>
      </trkpt>
      <trkpt lat="43.74863" lon="7.14263">
        <ele>451.57</ele>
        <time>2013-05-09T08:03:59Z</time>
      </trkpt>
      <trkpt lat="43.74853" lon="7.1426">
        <ele>452.43</ele>
        <time>2013-05-09T08:04:08Z</time>
      </trkpt>
      <trkpt lat="43.74844" lon="7.14259">
        <ele>452.65</ele>
        <time>2013-05-09T08:04:17Z</time>
      </trkpt>
      <trkpt lat="43.74839" lon="7.14247">
        <ele>452.31</ele>
        <time>2013-05-09T08:04:26Z</time>
      </trkpt>
      <trkpt lat="43.74834" lon="7.14233">
        <ele>451.77</ele>
        <time>2013-05-09T08:04:38Z</time>
      </trkpt>
      <trkpt lat="43.74843" lon="7.14227">
        <ele>452.28</ele>
        <time>2013-05-09T08:04:53Z</time>
      </trkpt>
      <trkpt lat="43.74853" lon="7.14225">
        <ele>453</ele>
        <time>2013-05-09T08:05:02Z</time>
      </trkpt>
      <trkpt lat="43.74862" lon="7.14223">
        <ele>453.74</ele>
        <time>2013-05-09T08:05:11Z</time>
      </trkpt>
      <trkpt lat="43.74872" lon="7.14222">
        <ele>454.86</ele>
        <time>2013-05-09T08:05:23Z</time>
      </trkpt>
      <trkpt lat="43.74882" lon="7.14225">
        <ele>456.32</ele>
        <time>2013-05-09T08:05:44Z</time>
      </trkpt>
      <trkpt lat="43.74891" lon="7.14223">
        <ele>457.37</ele>
        <time>2013-05-09T08:05:56Z</time>
      </trkpt>
      <trkpt lat="43.74893" lon="7.1421">
        <ele>463.61</ele>
        <time>2013-05-09T08:06:37Z</time>
      </trkpt>
      <trkpt lat="43.74902" lon="7.14206">
        <ele>467.65</ele>
        <time>2013-05-09T08:06:58Z</time>
      </trkpt>
      <trkpt lat="43.74912" lon="7.14207">
        <ele>470.47</ele>
        <time>2013-05-09T08:07:16Z</time>
      </trkpt>
      <trkpt lat="43.74921" lon="7.14208">
        <ele>472.21</ele>
        <time>2013-05-09T08:07:28Z</time>
      </trkpt>
      <trkpt lat="43.74916" lon="7.14197">
        <ele>474.87</ele>
        <time>2013-05-09T08:07:52Z</time>
      </trkpt>
      <trkpt lat="43.74924" lon="7.1419">
        <ele>477.86</ele>
        <time>2013-05-09T08:08:13Z</time>
      </trkpt>
      <trkpt lat="43.74929" lon="7.1418">
        <ele>480.45</ele>
        <time>2013-05-09T08:08:28Z</time>
      </trkpt>
      <trkpt lat="43.74937" lon="7.14171">
        <ele>483.79</ele>
        <time>2013-05-09T08:08:55Z</time>
      </trkpt>
      <trkpt lat="43.74944" lon="7.1416">
        <ele>485.63</ele>
        <time>2013-05-09T08:09:16Z</time>
      </trkpt>
      <trkpt lat="43.74952" lon="7.14152">
        <ele>487.7</ele>
        <time>2013-05-09T08:09:37Z</time>
      </trkpt>
      <trkpt lat="43.74961" lon="7.14152">
        <ele>490.4</ele>
        <time>2013-05-09T08:09:55Z</time>
      </trkpt>
      <trkpt lat="43.74972" lon="7.14151">
        <ele>491.2</ele>
        <time>2013-05-09T08:10:07Z</time>
      </trkpt>
      <trkpt lat="43.74981" lon="7.1415">
        <ele>492.05</ele>
        <time>2013-05-09T08:10:19Z</time>
      </trkpt>
      <trkpt lat="43.74991" lon="7.14154">
        <ele>494</ele>
        <time>2013-05-09T08:10:46Z</time>
      </trkpt>
      <trkpt lat="43.75001" lon="7.14155">
        <ele>495.98</ele>
        <time>2013-05-09T08:11:04Z</time>
      </trkpt>
      <trkpt lat="43.7501" lon="7.1416">
        <ele>498.74</ele>
        <time>2013-05-09T08:11:22Z</time>
      </trkpt>
      <trkpt lat="43.75021" lon="7.14161">
        <ele>501.24</ele>
        <time>2013-05-09T08:11:37Z</time>
      </trkpt>
      <trkpt lat="43.75032" lon="7.14162">
        <ele>502.97</ele>
        <time>2013-05-09T08:11:49Z</time>
      </trkpt>
      <trkpt lat="43.75042" lon="7.14165">
        <ele>504.03</ele>
        <time>2013-05-09T08:12:01Z</time>
      </trkpt>
      <trkpt lat="43.75049" lon="7.14154">
        <ele>506.98</ele>
        <time>2013-05-09T08:12:52Z</time>
      </trkpt>
      <trkpt lat="43.75046" lon="7.14139">
        <ele>507.27</ele>
        <time>2013-05-09T08:13:07Z</time>
      </trkpt>
      <trkpt lat="43.75058" lon="7.14153">
        <ele>507.02</ele>
        <time>2013-05-09T08:13:43Z</time>
      </trkpt>
      <trkpt lat="43.75065" lon="7.14162">
        <ele>507.2</ele>
        <time>2013-05-09T08:14:25Z</time>
      </trkpt>
      <trkpt lat="43.75062" lon="7.14175">
        <ele>507.57</ele>
        <time>2013-05-09T08:14:34Z</time>
      </trkpt>
      <trkpt lat="43.75072" lon="7.14172">
        <ele>512.14</ele>
        <time>2013-05-09T08:15:55Z</time>
      </trkpt>
      <trkpt lat="43.7508" lon="7.14178">
        <ele>514.12</ele>
        <time>2013-05-09T08:17:34Z</time>
      </trkpt>
      <trkpt lat="43.75089" lon="7.14183">
        <ele>514.86</ele>
        <time>2013-05-09T08:17:52Z</time>
      </trkpt>
      <trkpt lat="43.75098" lon="7.1418">
        <ele>515.29</ele>
        <time>2013-05-09T08:18:10Z</time>
      </trkpt>
      <trkpt lat="43.75109" lon="7.14179">
        <ele>515.64</ele>
        <time>2013-05-09T08:18:25Z</time>
      </trkpt>
      <trkpt lat="43.75119" lon="7.14183">
        <ele>516.85</ele>
        <time>2013-05-09T08:18:46Z</time>
      </trkpt>
      <trkpt lat="43.75127" lon="7.1419">
        <ele>517.55</ele>
        <time>2013-05-09T08:19:01Z</time>
      </trkpt>
      <trkpt lat="43.75135" lon="7.14197">
        <ele>518.92</ele>
        <time>2013-05-09T08:19:16Z</time>
      </trkpt>
      <trkpt lat="43.75144" lon="7.14202">
        <ele>520.14</ele>
        <time>2013-05-09T08:19:25Z</time>
      </trkpt>
      <trkpt lat="43.75156" lon="7.14206">
        <ele>521.15</ele>
        <time>2013-05-09T08:19:34Z</time>
      </trkpt>
      <trkpt lat="43.75165" lon="7.1421">
        <ele>522.22</ele>
        <time>2013-05-09T08:19:46Z</time>
      </trkpt>
      <trkpt lat="43.75176" lon="7.14213">
        <ele>523.06</ele>
        <time>2013-05-09T08:20:01Z</time>
      </trkpt>
      <trkpt lat="43.75185" lon="7.14212">
        <ele>523.36</ele>
        <time>2013-05-09T08:20:13Z</time>
      </trkpt>
      <trkpt lat="43.75195" lon="7.1422">
        <ele>523.62</ele>
        <time>2013-05-09T08:20:25Z</time>
      </trkpt>
      <trkpt lat="43.75204" lon="7.14228">
        <ele>524.42</ele>
        <time>2013-05-09T08:20:40Z</time>
      </trkpt>
      <trkpt lat="43.75214" lon="7.14234">
        <ele>525.09</ele>
        <time>2013-05-09T08:20:52Z</time>
      </trkpt>
      <trkpt lat="43.75224" lon="7.14236">
        <ele>525.65</ele>
        <time>2013-05-09T08:21:01Z</time>
      </trkpt>
      <trkpt lat="43.75233" lon="7.14236">
        <ele>526.62</ele>
        <time>2013-05-09T08:21:16Z</time>
      </trkpt>
      <trkpt lat="43.75242" lon="7.14241">
        <ele>527.02</ele>
        <time>2013-05-09T08:21:34Z</time>
      </trkpt>
      <trkpt lat="43.75249" lon="7.14249">
        <ele>527.13</ele>
        <time>2013-05-09T08:21:49Z</time>
      </trkpt>
      <trkpt lat="43.75258" lon="7.14253">
        <ele>528.33</ele>
        <time>2013-05-09T08:22:10Z</time>
      </trkpt>
      <trkpt lat="43.75267" lon="7.14256">
        <ele>529.27</ele>
        <time>2013-05-09T08:22:22Z</time>
      </trkpt>
      <trkpt lat="43.75277" lon="7.14256">
        <ele>532.08</ele>
        <time>2013-05-09T08:22:43Z</time>
      </trkpt>
      <trkpt lat="43.75287" lon="7.14255">
        <ele>534.78</ele>
        <time>2013-05-09T08:23:01Z</time>
      </trkpt>
      <trkpt lat="43.75297" lon="7.14261">
        <ele>535.37</ele>
        <time>2013-05-09T08:23:13Z</time>
      </trkpt>
      <trkpt lat="43.75306" lon="7.14267">
        <ele>536.23</ele>
        <time>2013-05-09T08:23:25Z</time>
      </trkpt>
      <trkpt lat="43.75314" lon="7.14275">
        <ele>537.5</ele>
        <time>2013-05-09T08:23:37Z</time>
      </trkpt>
      <trkpt lat="43.75323" lon="7.14284">
        <ele>543.27</ele>
        <time>2013-05-09T08:25:40Z</time>
      </trkpt>
      <trkpt lat="43.75317" lon="7.1427">
        <ele>545.84</ele>
        <time>2013-05-09T08:25:58Z</time>
      </trkpt>
      <trkpt lat="43.75326" lon="7.14278">
        <ele>546.36</ele>
        <time>2013-05-09T08:26:22Z</time>
      </trkpt>
      <trkpt lat="43.75335" lon="7.14285">
        <ele>544.35</ele>
        <time>2013-05-09T08:26:34Z</time>
      </trkpt>
      <trkpt lat="43.75344" lon="7.14288">
        <ele>542.05</ele>
        <time>2013-05-09T08:26:46Z</time>
      </trkpt>
      <trkpt lat="43.75353" lon="7.14292">
        <ele>539.94</ele>
        <time>2013-05-09T08:26:58Z</time>
      </trkpt>
      <trkpt lat="43.75361" lon="7.14297">
        <ele>538.7</ele>
        <time>2013-05-09T08:27:10Z</time>
      </trkpt>
      <trkpt lat="43.75372" lon="7.143">
        <ele>538.47</ele>
        <time>2013-05-09T08:27:22Z</time>
      </trkpt>
      <trkpt lat="43.75381" lon="7.14306">
        <ele>539.9</ele>
        <time>2013-05-09T08:27:37Z</time>
      </trkpt>
      <trkpt lat="43.75376" lon="7.14296">
        <ele>545.32</ele>
        <time>2013-05-09T08:28:01Z</time>
      </trkpt>
      <trkpt lat="43.75368" lon="7.14288">
        <ele>551.07</ele>
        <time>2013-05-09T08:28:19Z</time>
      </trkpt>
      <trkpt lat="43.75362" lon="7.14278">
        <ele>555.38</ele>
        <time>2013-05-09T08:28:34Z</time>
      </trkpt>
      <trkpt lat="43.75354" lon="7.14268">
        <ele>559.44</ele>
        <time>2013-05-09T08:28:49Z</time>
      </trkpt>
      <trkpt lat="43.7536" lon="7.14258">
        <ele>562.79</ele>
        <time>2013-05-09T08:29:13Z</time>
      </trkpt>
      <trkpt lat="43.75369" lon="7.14264">
        <ele>562.54</ele>
        <time>2013-05-09T08:29:28Z</time>
      </trkpt>
      <trkpt lat="43.75379" lon="7.14267">
        <ele>562.8</ele>
        <time>2013-05-09T08:29:43Z</time>
      </trkpt>
      <trkpt lat="43.75389" lon="7.14269">
        <ele>562.95</ele>
        <time>2013-05-09T08:30:01Z</time>
      </trkpt>
      <trkpt lat="43.75398" lon="7.14268">
        <ele>562.95</ele>
        <time>2013-05-09T08:30:10Z</time>
      </trkpt>
      <trkpt lat="43.75405" lon="7.14278">
        <ele>564.11</ele>
        <time>2013-05-09T08:30:34Z</time>
      </trkpt>
      <trkpt lat="43.75422" lon="7.14307">
        <ele>567.9</ele>
        <time>2013-05-09T08:31:01Z</time>
      </trkpt>
      <trkpt lat="43.75428" lon="7.14297">
        <ele>567.69</ele>
        <time>2013-05-09T08:31:07Z</time>
      </trkpt>
      <trkpt lat="43.75438" lon="7.143">
        <ele>567.43</ele>
        <time>2013-05-09T08:31:22Z</time>
      </trkpt>
      <trkpt lat="43.75448" lon="7.14304">
        <ele>567.88</ele>
        <time>2013-05-09T08:31:34Z</time>
      </trkpt>
      <trkpt lat="43.75457" lon="7.14312">
        <ele>568.2</ele>
        <time>2013-05-09T08:31:46Z</time>
      </trkpt>
      <trkpt lat="43.75466" lon="7.1432">
        <ele>568</ele>
        <time>2013-05-09T08:31:58Z</time>
      </trkpt>
      <trkpt lat="43.75475" lon="7.14324">
        <ele>567.36</ele>
        <time>2013-05-09T08:32:13Z</time>
      </trkpt>
      <trkpt lat="43.75485" lon="7.14326">
        <ele>567.19</ele>
        <time>2013-05-09T08:32:28Z</time>
      </trkpt>
      <trkpt lat="43.75494" lon="7.14328">
        <ele>566.96</ele>
        <time>2013-05-09T08:32:40Z</time>
      </trkpt>
      <trkpt lat="43.75504" lon="7.14333">
        <ele>568.01</ele>
        <time>2013-05-09T08:32:58Z</time>
      </trkpt>
      <trkpt lat="43.75515" lon="7.14332">
        <ele>569.6</ele>
        <time>2013-05-09T08:33:10Z</time>
      </trkpt>
      <trkpt lat="43.75524" lon="7.14335">
        <ele>571.42</ele>
        <time>2013-05-09T08:33:22Z</time>
      </trkpt>
      <trkpt lat="43.75533" lon="7.14332">
        <ele>575.29</ele>
        <time>2013-05-09T08:33:37Z</time>
      </trkpt>
      <trkpt lat="43.75542" lon="7.1433">
        <ele>578.54</ele>
        <time>2013-05-09T08:33:49Z</time>
      </trkpt>
      <trkpt lat="43.75551" lon="7.14331">
        <ele>580.69</ele>
        <time>2013-05-09T08:34:04Z</time>
      </trkpt>
      <trkpt lat="43.75562" lon="7.14328">
        <ele>583.65</ele>
        <time>2013-05-09T08:34:22Z</time>
      </trkpt>
      <trkpt lat="43.75571" lon="7.1433">
        <ele>585.94</ele>
        <time>2013-05-09T08:34:34Z</time>
      </trkpt>
      <trkpt lat="43.75582" lon="7.1433">
        <ele>588.75</ele>
        <time>2013-05-09T08:34:52Z</time>
      </trkpt>
      <trkpt lat="43.75591" lon="7.14334">
        <ele>591.39</ele>
        <time>2013-05-09T08:35:10Z</time>
      </trkpt>
      <trkpt lat="43.756" lon="7.14331">
        <ele>594.57</ele>
        <time>2013-05-09T08:35:28Z</time>
      </trkpt>
      <trkpt lat="43.75609" lon="7.14323">
        <ele>597.14</ele>
        <time>2013-05-09T08:35:46Z</time>
      </trkpt>
      <trkpt lat="43.75618" lon="7.14322">
        <ele>597.5</ele>
        <time>2013-05-09T08:36:04Z</time>
      </trkpt>
      <trkpt lat="43.75627" lon="7.14318">
        <ele>598.38</ele>
        <time>2013-05-09T08:36:16Z</time>
      </trkpt>
      <trkpt lat="43.75637" lon="7.14318">
        <ele>598.95</ele>
        <time>2013-05-09T08:36:25Z</time>
      </trkpt>
      <trkpt lat="43.75646" lon="7.14317">
        <ele>602.33</ele>
        <time>2013-05-09T08:37:19Z</time>
      </trkpt>
      <trkpt lat="43.75656" lon="7.14317">
        <ele>602.87</ele>
        <time>2013-05-09T08:37:40Z</time>
      </trkpt>
      <trkpt lat="43.75665" lon="7.14313">
        <ele>603.7</ele>
        <time>2013-05-09T08:37:55Z</time>
      </trkpt>
      <trkpt lat="43.75675" lon="7.1431">
        <ele>605.49</ele>
        <time>2013-05-09T08:38:22Z</time>
      </trkpt>
      <trkpt lat="43.75686" lon="7.14308">
        <ele>607.14</ele>
        <time>2013-05-09T08:38:37Z</time>
      </trkpt>
      <trkpt lat="43.75697" lon="7.14313">
        <ele>608.3</ele>
        <time>2013-05-09T08:38:49Z</time>
      </trkpt>
      <trkpt lat="43.75706" lon="7.14317">
        <ele>609.1</ele>
        <time>2013-05-09T08:39:01Z</time>
      </trkpt>
      <trkpt lat="43.75717" lon="7.14323">
        <ele>610.03</ele>
        <time>2013-05-09T08:39:13Z</time>
      </trkpt>
      <trkpt lat="43.75726" lon="7.14326">
        <ele>610.19</ele>
        <time>2013-05-09T08:39:28Z</time>
      </trkpt>
      <trkpt lat="43.75737" lon="7.14327">
        <ele>611.25</ele>
        <time>2013-05-09T08:39:58Z</time>
      </trkpt>
      <trkpt lat="43.75747" lon="7.14322">
        <ele>614.03</ele>
        <time>2013-05-09T08:40:52Z</time>
      </trkpt>
      <trkpt lat="43.75738" lon="7.14326">
        <ele>613.52</ele>
        <time>2013-05-09T08:41:40Z</time>
      </trkpt>
      <trkpt lat="43.75746" lon="7.14328">
        <ele>622</ele>
        <time>2013-05-09T08:43:22Z</time>
      </trkpt>
      <trkpt lat="43.75757" lon="7.14328">
        <ele>621.51</ele>
        <time>2013-05-09T08:43:46Z</time>
      </trkpt>
      <trkpt lat="43.75768" lon="7.14329">
        <ele>620.82</ele>
        <time>2013-05-09T08:43:58Z</time>
      </trkpt>
      <trkpt lat="43.75778" lon="7.14326">
        <ele>620.2</ele>
        <time>2013-05-09T08:44:10Z</time>
      </trkpt>
      <trkpt lat="43.75788" lon="7.14321">
        <ele>619.87</ele>
        <time>2013-05-09T08:44:22Z</time>
      </trkpt>
      <trkpt lat="43.75799" lon="7.14312">
        <ele>619.64</ele>
        <time>2013-05-09T08:44:34Z</time>
      </trkpt>
      <trkpt lat="43.75807" lon="7.14305">
        <ele>619.74</ele>
        <time>2013-05-09T08:44:43Z</time>
      </trkpt>
      <trkpt lat="43.75817" lon="7.14303">
        <ele>620.14</ele>
        <time>2013-05-09T08:44:52Z</time>
      </trkpt>
      <trkpt lat="43.75827" lon="7.14299">
        <ele>620.64</ele>
        <time>2013-05-09T08:45:01Z</time>
      </trkpt>
      <trkpt lat="43.75838" lon="7.14296">
        <ele>621.75</ele>
        <time>2013-05-09T08:45:13Z</time>
      </trkpt>
      <trkpt lat="43.75849" lon="7.14295">
        <ele>622.42</ele>
        <time>2013-05-09T08:45:22Z</time>
      </trkpt>
      <trkpt lat="43.7586" lon="7.14293">
        <ele>622.77</ele>
        <time>2013-05-09T08:45:31Z</time>
      </trkpt>
      <trkpt lat="43.75871" lon="7.1429">
        <ele>623.42</ele>
        <time>2013-05-09T08:45:46Z</time>
      </trkpt>
      <trkpt lat="43.75882" lon="7.1429">
        <ele>624.29</ele>
        <time>2013-05-09T08:45:55Z</time>
      </trkpt>
      <trkpt lat="43.75892" lon="7.14302">
        <ele>625.24</ele>
        <time>2013-05-09T08:46:04Z</time>
      </trkpt>
      <trkpt lat="43.75901" lon="7.14302">
        <ele>626.64</ele>
        <time>2013-05-09T08:46:16Z</time>
      </trkpt>
      <trkpt lat="43.75912" lon="7.14299">
        <ele>628.08</ele>
        <time>2013-05-09T08:46:28Z</time>
      </trkpt>
      <trkpt lat="43.75921" lon="7.14306">
        <ele>629.09</ele>
        <time>2013-05-09T08:46:37Z</time>
      </trkpt>
      <trkpt lat="43.7592" lon="7.1432">
        <ele>633.48</ele>
        <time>2013-05-09T08:47:07Z</time>
      </trkpt>
      <trkpt lat="43.75929" lon="7.14324">
        <ele>636.61</ele>
        <time>2013-05-09T08:47:31Z</time>
      </trkpt>
      <trkpt lat="43.75926" lon="7.14336">
        <ele>639.54</ele>
        <time>2013-05-09T08:47:55Z</time>
      </trkpt>
      <trkpt lat="43.75919" lon="7.14346">
        <ele>641.29</ele>
        <time>2013-05-09T08:48:04Z</time>
      </trkpt>
      <trkpt lat="43.75914" lon="7.14357">
        <ele>644.93</ele>
        <time>2013-05-09T08:48:22Z</time>
      </trkpt>
      <trkpt lat="43.75909" lon="7.1437">
        <ele>649.21</ele>
        <time>2013-05-09T08:48:46Z</time>
      </trkpt>
      <trkpt lat="43.75902" lon="7.14381">
        <ele>651.35</ele>
        <time>2013-05-09T08:49:07Z</time>
      </trkpt>
      <trkpt lat="43.75895" lon="7.14393">
        <ele>654.73</ele>
        <time>2013-05-09T08:49:43Z</time>
      </trkpt>
      <trkpt lat="43.7589" lon="7.14405">
        <ele>656.18</ele>
        <time>2013-05-09T08:50:01Z</time>
      </trkpt>
      <trkpt lat="43.75895" lon="7.14417">
        <ele>659.01</ele>
        <time>2013-05-09T08:50:34Z</time>
      </trkpt>
      <trkpt lat="43.75902" lon="7.14424">
        <ele>662.06</ele>
        <time>2013-05-09T08:51:01Z</time>
      </trkpt>
      <trkpt lat="43.75909" lon="7.14433">
        <ele>666.62</ele>
        <time>2013-05-09T08:52:04Z</time>
      </trkpt>
      <trkpt lat="43.75918" lon="7.14436">
        <ele>667.44</ele>
        <time>2013-05-09T08:52:31Z</time>
      </trkpt>
      <trkpt lat="43.75928" lon="7.14436">
        <ele>669.95</ele>
        <time>2013-05-09T08:52:52Z</time>
      </trkpt>
      <trkpt lat="43.75938" lon="7.14439">
        <ele>673.08</ele>
        <time>2013-05-09T08:53:16Z</time>
      </trkpt>
      <trkpt lat="43.75947" lon="7.14442">
        <ele>676.96</ele>
        <time>2013-05-09T08:53:37Z</time>
      </trkpt>
      <trkpt lat="43.75944" lon="7.14454">
        <ele>680.19</ele>
        <time>2013-05-09T08:54:01Z</time>
      </trkpt>
      <trkpt lat="43.75942" lon="7.14468">
        <ele>683.05</ele>
        <time>2013-05-09T08:54:37Z</time>
      </trkpt>
      <trkpt lat="43.75935" lon="7.14477">
        <ele>686.06</ele>
        <time>2013-05-09T08:55:01Z</time>
      </trkpt>
      <trkpt lat="43.75928" lon="7.14486">
        <ele>687.9</ele>
        <time>2013-05-09T08:55:16Z</time>
      </trkpt>
      <trkpt lat="43.75937" lon="7.14491">
        <ele>693.35</ele>
        <time>2013-05-09T08:56:25Z</time>
      </trkpt>
      <trkpt lat="43.75929" lon="7.14498">
        <ele>695.36</ele>
        <time>2013-05-09T08:56:49Z</time>
      </trkpt>
      <trkpt lat="43.75927" lon="7.14511">
        <ele>697.86</ele>
        <time>2013-05-09T08:57:16Z</time>
      </trkpt>
      <trkpt lat="43.75934" lon="7.14518">
        <ele>700</ele>
        <time>2013-05-09T08:57:46Z</time>
      </trkpt>
      <trkpt lat="43.75942" lon="7.14524">
        <ele>702.93</ele>
        <time>2013-05-09T08:58:34Z</time>
      </trkpt>
      <trkpt lat="43.75952" lon="7.14528">
        <ele>704.73</ele>
        <time>2013-05-09T08:58:58Z</time>
      </trkpt>
      <trkpt lat="43.75961" lon="7.14528">
        <ele>707.23</ele>
        <time>2013-05-09T09:00:13Z</time>
      </trkpt>
      <trkpt lat="43.75969" lon="7.14535">
        <ele>712.83</ele>
        <time>2013-05-09T09:00:49Z</time>
      </trkpt>
      <trkpt lat="43.75963" lon="7.14545">
        <ele>715.3</ele>
        <time>2013-05-09T09:01:07Z</time>
      </trkpt>
      <trkpt lat="43.75959" lon="7.14557">
        <ele>718.57</ele>
        <time>2013-05-09T09:01:40Z</time>
      </trkpt>
      <trkpt lat="43.75968" lon="7.1456">
        <ele>720.75</ele>
        <time>2013-05-09T09:01:55Z</time>
      </trkpt>
      <trkpt lat="43.75977" lon="7.14564">
        <ele>723.88</ele>
        <time>2013-05-09T09:02:25Z</time>
      </trkpt>
      <trkpt lat="43.75984" lon="7.14573">
        <ele>729.08</ele>
        <time>2013-05-09T09:02:58Z</time>
      </trkpt>
      <trkpt lat="43.75991" lon="7.14581">
        <ele>736.97</ele>
        <time>2013-05-09T09:04:34Z</time>
      </trkpt>
      <trkpt lat="43.76001" lon="7.14586">
        <ele>738.64</ele>
        <time>2013-05-09T09:04:52Z</time>
      </trkpt>
      <trkpt lat="43.76009" lon="7.1459">
        <ele>739.95</ele>
        <time>2013-05-09T09:05:08Z</time>
      </trkpt>
      <trkpt lat="43.76019" lon="7.14594">
        <ele>741.49</ele>
        <time>2013-05-09T09:05:23Z</time>
      </trkpt>
      <trkpt lat="43.76028" lon="7.146">
        <ele>745.26</ele>
        <time>2013-05-09T09:06:02Z</time>
      </trkpt>
      <trkpt lat="43.76033" lon="7.14626">
        <ele>755.79</ele>
        <time>2013-05-09T09:09:30Z</time>
      </trkpt>
      <trkpt lat="43.76025" lon="7.14635">
        <ele>758.01</ele>
        <time>2013-05-09T09:10:21Z</time>
      </trkpt>
      <trkpt lat="43.76033" lon="7.14643">
        <ele>762.06</ele>
        <time>2013-05-09T09:11:18Z</time>
      </trkpt>
      <trkpt lat="43.7604" lon="7.14652">
        <ele>763.59</ele>
        <time>2013-05-09T09:11:39Z</time>
      </trkpt>
      <trkpt lat="43.76048" lon="7.1466">
        <ele>765.11</ele>
        <time>2013-05-09T09:12:00Z</time>
      </trkpt>
      <trkpt lat="43.76056" lon="7.14667">
        <ele>767.55</ele>
        <time>2013-05-09T09:12:21Z</time>
      </trkpt>
      <trkpt lat="43.7605" lon="7.14678">
        <ele>770.73</ele>
        <time>2013-05-09T09:12:57Z</time>
      </trkpt>
      <trkpt lat="43.76041" lon="7.14682">
        <ele>773.4</ele>
        <time>2013-05-09T09:13:18Z</time>
      </trkpt>
      <trkpt lat="43.76033" lon="7.14688">
        <ele>776.69</ele>
        <time>2013-05-09T09:14:03Z</time>
      </trkpt>
      <trkpt lat="43.76025" lon="7.14693">
        <ele>778.78</ele>
        <time>2013-05-09T09:14:21Z</time>
      </trkpt>
      <trkpt lat="43.7602" lon="7.14704">
        <ele>782.54</ele>
        <time>2013-05-09T09:14:48Z</time>
      </trkpt>
      <trkpt lat="43.76014" lon="7.14715">
        <ele>791.69</ele>
        <time>2013-05-09T09:18:33Z</time>
      </trkpt>
      <trkpt lat="43.76009" lon="7.14726">
        <ele>792.57</ele>
        <time>2013-05-09T09:18:54Z</time>
      </trkpt>
      <trkpt lat="43.76006" lon="7.14738">
        <ele>794.65</ele>
        <time>2013-05-09T09:19:15Z</time>
      </trkpt>
      <trkpt lat="43.76" lon="7.14747">
        <ele>796.8</ele>
        <time>2013-05-09T09:19:42Z</time>
      </trkpt>
      <trkpt lat="43.75991" lon="7.14757">
        <ele>798.22</ele>
        <time>2013-05-09T09:20:00Z</time>
      </trkpt>
      <trkpt lat="43.75983" lon="7.14764">
        <ele>799.83</ele>
        <time>2013-05-09T09:20:15Z</time>
      </trkpt>
      <trkpt lat="43.75975" lon="7.1477">
        <ele>801.64</ele>
        <time>2013-05-09T09:20:33Z</time>
      </trkpt>
      <trkpt lat="43.75969" lon="7.1478">
        <ele>803.99</ele>
        <time>2013-05-09T09:21:00Z</time>
      </trkpt>
      <trkpt lat="43.7596" lon="7.14787">
        <ele>805.73</ele>
        <time>2013-05-09T09:21:15Z</time>
      </trkpt>
      <trkpt lat="43.75952" lon="7.14796">
        <ele>807.61</ele>
        <time>2013-05-09T09:21:30Z</time>
      </trkpt>
      <trkpt lat="43.75946" lon="7.14808">
        <ele>809</ele>
        <time>2013-05-09T09:21:48Z</time>
      </trkpt>
      <trkpt lat="43.75941" lon="7.14819">
        <ele>809.7</ele>
        <time>2013-05-09T09:22:00Z</time>
      </trkpt>
      <trkpt lat="43.75931" lon="7.1483">
        <ele>810.67</ele>
        <time>2013-05-09T09:22:12Z</time>
      </trkpt>
      <trkpt lat="43.75923" lon="7.14838">
        <ele>812.04</ele>
        <time>2013-05-09T09:22:24Z</time>
      </trkpt>
      <trkpt lat="43.75914" lon="7.14844">
        <ele>814.68</ele>
        <time>2013-05-09T09:22:57Z</time>
      </trkpt>
      <trkpt lat="43.75903" lon="7.14846">
        <ele>815.48</ele>
        <time>2013-05-09T09:23:09Z</time>
      </trkpt>
      <trkpt lat="43.75892" lon="7.14851">
        <ele>816.18</ele>
        <time>2013-05-09T09:23:24Z</time>
      </trkpt>
      <trkpt lat="43.75883" lon="7.14854">
        <ele>816.62</ele>
        <time>2013-05-09T09:23:33Z</time>
      </trkpt>
      <trkpt lat="43.75873" lon="7.14861">
        <ele>817.47</ele>
        <time>2013-05-09T09:23:51Z</time>
      </trkpt>
      <trkpt lat="43.75863" lon="7.14864">
        <ele>817.52</ele>
        <time>2013-05-09T09:24:03Z</time>
      </trkpt>
      <trkpt lat="43.75853" lon="7.14869">
        <ele>817.25</ele>
        <time>2013-05-09T09:24:46Z</time>
      </trkpt>
      <trkpt lat="43.75843" lon="7.14879">
        <ele>817.69</ele>
        <time>2013-05-09T09:24:55Z</time>
      </trkpt>
      <trkpt lat="43.75835" lon="7.14889">
        <ele>818.62</ele>
        <time>2013-05-09T09:25:07Z</time>
      </trkpt>
      <trkpt lat="43.75826" lon="7.14896">
        <ele>819.54</ele>
        <time>2013-05-09T09:25:25Z</time>
      </trkpt>
      <trkpt lat="43.75816" lon="7.14897">
        <ele>819.06</ele>
        <time>2013-05-09T09:25:37Z</time>
      </trkpt>
      <trkpt lat="43.75806" lon="7.14901">
        <ele>818.02</ele>
        <time>2013-05-09T09:25:49Z</time>
      </trkpt>
      <trkpt lat="43.75794" lon="7.14898">
        <ele>817.15</ele>
        <time>2013-05-09T09:26:01Z</time>
      </trkpt>
      <trkpt lat="43.75783" lon="7.14897">
        <ele>816.11</ele>
        <time>2013-05-09T09:26:13Z</time>
      </trkpt>
      <trkpt lat="43.75773" lon="7.14897">
        <ele>815.02</ele>
        <time>2013-05-09T09:26:25Z</time>
      </trkpt>
      <trkpt lat="43.75765" lon="7.1489">
        <ele>812.96</ele>
        <time>2013-05-09T09:28:44Z</time>
      </trkpt>
      <trkpt lat="43.75756" lon="7.14894">
        <ele>812.33</ele>
        <time>2013-05-09T09:28:56Z</time>
      </trkpt>
      <trkpt lat="43.75747" lon="7.14892">
        <ele>811.82</ele>
        <time>2013-05-09T09:29:11Z</time>
      </trkpt>
      <trkpt lat="43.75739" lon="7.14885">
        <ele>810.8</ele>
        <time>2013-05-09T09:29:35Z</time>
      </trkpt>
      <trkpt lat="43.75745" lon="7.1487">
        <ele>809.85</ele>
        <time>2013-05-09T09:31:09Z</time>
      </trkpt>
      <trkpt lat="43.75736" lon="7.14875">
        <ele>807.11</ele>
        <time>2013-05-09T09:32:15Z</time>
      </trkpt>
      <trkpt lat="43.75727" lon="7.14881">
        <ele>806.08</ele>
        <time>2013-05-09T09:39:19Z</time>
      </trkpt>
      <trkpt lat="43.75717" lon="7.1489">
        <ele>804.9</ele>
        <time>2013-05-09T09:39:46Z</time>
      </trkpt>
      <trkpt lat="43.75709" lon="7.14899">
        <ele>804.33</ele>
        <time>2013-05-09T09:39:58Z</time>
      </trkpt>
      <trkpt lat="43.75707" lon="7.14915">
        <ele>804.46</ele>
        <time>2013-05-09T09:40:13Z</time>
      </trkpt>
      <trkpt lat="43.75704" lon="7.14931">
        <ele>805.41</ele>
        <time>2013-05-09T09:40:28Z</time>
      </trkpt>
      <trkpt lat="43.75703" lon="7.14948">
        <ele>806.33</ele>
        <time>2013-05-09T09:40:40Z</time>
      </trkpt>
      <trkpt lat="43.75694" lon="7.14943">
        <ele>806.76</ele>
        <time>2013-05-09T09:40:58Z</time>
      </trkpt>
      <trkpt lat="43.75683" lon="7.14937">
        <ele>807.16</ele>
        <time>2013-05-09T09:41:14Z</time>
      </trkpt>
      <trkpt lat="43.75672" lon="7.14941">
        <ele>807.02</ele>
        <time>2013-05-09T09:41:29Z</time>
      </trkpt>
      <trkpt lat="43.75664" lon="7.14949">
        <ele>806.84</ele>
        <time>2013-05-09T09:41:50Z</time>
      </trkpt>
      <trkpt lat="43.75657" lon="7.14956">
        <ele>805.55</ele>
        <time>2013-05-09T09:42:14Z</time>
      </trkpt>
      <trkpt lat="43.7566" lon="7.1497">
        <ele>802.42</ele>
        <time>2013-05-09T09:43:44Z</time>
      </trkpt>
      <trkpt lat="43.75658" lon="7.14975">
        <ele>802.38</ele>
        <time>2013-05-09T09:44:23Z</time>
      </trkpt>
      <trkpt lat="43.75655" lon="7.14962">
        <ele>800.13</ele>
        <time>2013-05-09T09:44:56Z</time>
      </trkpt>
      <trkpt lat="43.75656" lon="7.14975">
        <ele>800.15</ele>
        <time>2013-05-09T09:46:23Z</time>
      </trkpt>
      <trkpt lat="43.75662" lon="7.14988">
        <ele>800.31</ele>
        <time>2013-05-09T09:46:38Z</time>
      </trkpt>
      <trkpt lat="43.75668" lon="7.14999">
        <ele>800.19</ele>
        <time>2013-05-09T09:46:53Z</time>
      </trkpt>
      <trkpt lat="43.75674" lon="7.15009">
        <ele>800.46</ele>
        <time>2013-05-09T09:47:08Z</time>
      </trkpt>
      <trkpt lat="43.75682" lon="7.15016">
        <ele>801.42</ele>
        <time>2013-05-09T09:47:26Z</time>
      </trkpt>
      <trkpt lat="43.75689" lon="7.15007">
        <ele>803.19</ele>
        <time>2013-05-09T09:48:05Z</time>
      </trkpt>
      <trkpt lat="43.75691" lon="7.14994">
        <ele>803.73</ele>
        <time>2013-05-09T09:48:17Z</time>
      </trkpt>
      <trkpt lat="43.75693" lon="7.14981">
        <ele>804.68</ele>
        <time>2013-05-09T09:48:29Z</time>
      </trkpt>
      <trkpt lat="43.75695" lon="7.14964">
        <ele>805.66</ele>
        <time>2013-05-09T09:48:44Z</time>
      </trkpt>
      <trkpt lat="43.757" lon="7.14951">
        <ele>806.64</ele>
        <time>2013-05-09T09:48:59Z</time>
      </trkpt>
      <trkpt lat="43.75702" lon="7.14938">
        <ele>807.66</ele>
        <time>2013-05-09T09:49:14Z</time>
      </trkpt>
      <trkpt lat="43.75704" lon="7.14924">
        <ele>808.43</ele>
        <time>2013-05-09T09:49:26Z</time>
      </trkpt>
      <trkpt lat="43.75707" lon="7.1491">
        <ele>809.08</ele>
        <time>2013-05-09T09:49:38Z</time>
      </trkpt>
      <trkpt lat="43.75709" lon="7.14897">
        <ele>808.88</ele>
        <time>2013-05-09T09:49:50Z</time>
      </trkpt>
      <trkpt lat="43.75716" lon="7.14889">
        <ele>808.66</ele>
        <time>2013-05-09T09:50:05Z</time>
      </trkpt>
      <trkpt lat="43.75727" lon="7.14886">
        <ele>809.15</ele>
        <time>2013-05-09T09:50:17Z</time>
      </trkpt>
      <trkpt lat="43.75737" lon="7.14887">
        <ele>809.11</ele>
        <time>2013-05-09T09:50:29Z</time>
      </trkpt>
      <trkpt lat="43.75747" lon="7.14893">
        <ele>808.33</ele>
        <time>2013-05-09T09:50:41Z</time>
      </trkpt>
      <trkpt lat="43.75755" lon="7.14899">
        <ele>807.46</ele>
        <time>2013-05-09T09:50:53Z</time>
      </trkpt>
      <trkpt lat="43.75765" lon="7.14896">
        <ele>807.85</ele>
        <time>2013-05-09T09:51:11Z</time>
      </trkpt>
      <trkpt lat="43.75775" lon="7.149">
        <ele>808.27</ele>
        <time>2013-05-09T09:51:26Z</time>
      </trkpt>
      <trkpt lat="43.75784" lon="7.14898">
        <ele>808.41</ele>
        <time>2013-05-09T09:51:41Z</time>
      </trkpt>
      <trkpt lat="43.75794" lon="7.14899">
        <ele>808.9</ele>
        <time>2013-05-09T09:51:53Z</time>
      </trkpt>
      <trkpt lat="43.75803" lon="7.14903">
        <ele>809.64</ele>
        <time>2013-05-09T09:52:08Z</time>
      </trkpt>
      <trkpt lat="43.75813" lon="7.149">
        <ele>810.67</ele>
        <time>2013-05-09T09:52:20Z</time>
      </trkpt>
      <trkpt lat="43.75822" lon="7.14897">
        <ele>811.29</ele>
        <time>2013-05-09T09:52:32Z</time>
      </trkpt>
      <trkpt lat="43.75831" lon="7.14896">
        <ele>812.18</ele>
        <time>2013-05-09T09:52:47Z</time>
      </trkpt>
      <trkpt lat="43.75839" lon="7.14889">
        <ele>813.23</ele>
        <time>2013-05-09T09:53:02Z</time>
      </trkpt>
      <trkpt lat="43.75847" lon="7.14878">
        <ele>813.67</ele>
        <time>2013-05-09T09:53:20Z</time>
      </trkpt>
      <trkpt lat="43.75854" lon="7.14869">
        <ele>814.19</ele>
        <time>2013-05-09T09:53:32Z</time>
      </trkpt>
      <trkpt lat="43.75864" lon="7.14868">
        <ele>815.74</ele>
        <time>2013-05-09T09:53:44Z</time>
      </trkpt>
      <trkpt lat="43.75873" lon="7.14864">
        <ele>816.87</ele>
        <time>2013-05-09T09:53:53Z</time>
      </trkpt>
      <trkpt lat="43.75882" lon="7.14856">
        <ele>818.03</ele>
        <time>2013-05-09T09:54:05Z</time>
      </trkpt>
      <trkpt lat="43.75892" lon="7.14853">
        <ele>818.79</ele>
        <time>2013-05-09T09:54:14Z</time>
      </trkpt>
      <trkpt lat="43.75903" lon="7.14848">
        <ele>819.88</ele>
        <time>2013-05-09T09:54:29Z</time>
      </trkpt>
      <trkpt lat="43.75912" lon="7.14847">
        <ele>820.21</ele>
        <time>2013-05-09T09:54:47Z</time>
      </trkpt>
      <trkpt lat="43.75923" lon="7.1485">
        <ele>820.15</ele>
        <time>2013-05-09T09:55:02Z</time>
      </trkpt>
      <trkpt lat="43.7593" lon="7.14859">
        <ele>820.59</ele>
        <time>2013-05-09T09:55:17Z</time>
      </trkpt>
      <trkpt lat="43.75939" lon="7.14863">
        <ele>820.96</ele>
        <time>2013-05-09T09:55:28Z</time>
      </trkpt>
      <trkpt lat="43.75949" lon="7.14865">
        <ele>821.33</ele>
        <time>2013-05-09T09:55:46Z</time>
      </trkpt>
      <trkpt lat="43.75958" lon="7.14863">
        <ele>821.62</ele>
        <time>2013-05-09T09:55:55Z</time>
      </trkpt>
      <trkpt lat="43.75968" lon="7.14863">
        <ele>822.02</ele>
        <time>2013-05-09T09:56:10Z</time>
      </trkpt>
      <trkpt lat="43.75975" lon="7.14855">
        <ele>822.55</ele>
        <time>2013-05-09T09:56:26Z</time>
      </trkpt>
      <trkpt lat="43.75984" lon="7.14847">
        <ele>823.49</ele>
        <time>2013-05-09T09:56:50Z</time>
      </trkpt>
      <trkpt lat="43.75993" lon="7.1484">
        <ele>823.89</ele>
        <time>2013-05-09T09:57:05Z</time>
      </trkpt>
      <trkpt lat="43.76003" lon="7.14841">
        <ele>824.22</ele>
        <time>2013-05-09T09:57:20Z</time>
      </trkpt>
      <trkpt lat="43.76013" lon="7.14846">
        <ele>824.94</ele>
        <time>2013-05-09T09:57:32Z</time>
      </trkpt>
      <trkpt lat="43.7602" lon="7.14855">
        <ele>825.82</ele>
        <time>2013-05-09T09:57:50Z</time>
      </trkpt>
      <trkpt lat="43.76031" lon="7.14866">
        <ele>826.56</ele>
        <time>2013-05-09T09:57:59Z</time>
      </trkpt>
      <trkpt lat="43.76037" lon="7.14884">
        <ele>827.46</ele>
        <time>2013-05-09T09:58:05Z</time>
      </trkpt>
      <trkpt lat="43.76039" lon="7.14868">
        <ele>830.89</ele>
        <time>2013-05-09T09:58:29Z</time>
      </trkpt>
      <trkpt lat="43.76041" lon="7.14854">
        <ele>831.64</ele>
        <time>2013-05-09T09:58:35Z</time>
      </trkpt>
      <trkpt lat="43.7605" lon="7.14849">
        <ele>831.87</ele>
        <time>2013-05-09T09:58:47Z</time>
      </trkpt>
      <trkpt lat="43.7606" lon="7.14853">
        <ele>830.48</ele>
        <time>2013-05-09T09:58:59Z</time>
      </trkpt>
      <trkpt lat="43.76072" lon="7.14854">
        <ele>828.77</ele>
        <time>2013-05-09T09:59:11Z</time>
      </trkpt>
      <trkpt lat="43.76081" lon="7.14858">
        <ele>828.03</ele>
        <time>2013-05-09T09:59:23Z</time>
      </trkpt>
      <trkpt lat="43.76077" lon="7.14869">
        <ele>827.77</ele>
        <time>2013-05-09T09:59:53Z</time>
      </trkpt>
      <trkpt lat="43.76086" lon="7.14862">
        <ele>830.6</ele>
        <time>2013-05-09T10:00:11Z</time>
      </trkpt>
      <trkpt lat="43.76079" lon="7.14871">
        <ele>833.66</ele>
        <time>2013-05-09T10:00:32Z</time>
      </trkpt>
      <trkpt lat="43.76087" lon="7.14879">
        <ele>833.53</ele>
        <time>2013-05-09T10:00:53Z</time>
      </trkpt>
      <trkpt lat="43.76099" lon="7.1488">
        <ele>836.01</ele>
        <time>2013-05-09T10:01:35Z</time>
      </trkpt>
      <trkpt lat="43.76116" lon="7.1489">
        <ele>836.6</ele>
        <time>2013-05-09T10:02:45Z</time>
      </trkpt>
      <trkpt lat="43.76107" lon="7.14894">
        <ele>837.24</ele>
        <time>2013-05-09T10:03:03Z</time>
      </trkpt>
      <trkpt lat="43.76113" lon="7.14884">
        <ele>839.26</ele>
        <time>2013-05-09T10:03:39Z</time>
      </trkpt>
      <trkpt lat="43.76121" lon="7.14876">
        <ele>840.23</ele>
        <time>2013-05-09T10:04:39Z</time>
      </trkpt>
      <trkpt lat="43.76128" lon="7.14884">
        <ele>840.14</ele>
        <time>2013-05-09T10:04:45Z</time>
      </trkpt>
      <trkpt lat="43.76135" lon="7.14892">
        <ele>840.08</ele>
        <time>2013-05-09T10:04:51Z</time>
      </trkpt>
      <trkpt lat="43.76143" lon="7.14899">
        <ele>839.92</ele>
        <time>2013-05-09T10:05:00Z</time>
      </trkpt>
      <trkpt lat="43.76152" lon="7.14906">
        <ele>838.46</ele>
        <time>2013-05-09T10:08:44Z</time>
      </trkpt>
      <trkpt lat="43.76162" lon="7.14912">
        <ele>838.13</ele>
        <time>2013-05-09T10:08:56Z</time>
      </trkpt>
      <trkpt lat="43.76171" lon="7.14915">
        <ele>837.59</ele>
        <time>2013-05-09T10:09:08Z</time>
      </trkpt>
      <trkpt lat="43.76183" lon="7.14918">
        <ele>836.12</ele>
        <time>2013-05-09T10:10:55Z</time>
      </trkpt>
      <trkpt lat="43.76189" lon="7.14929">
        <ele>836.42</ele>
        <time>2013-05-09T10:11:04Z</time>
      </trkpt>
      <trkpt lat="43.76199" lon="7.14938">
        <ele>837.1</ele>
        <time>2013-05-09T10:11:19Z</time>
      </trkpt>
      <trkpt lat="43.76208" lon="7.14933">
        <ele>836.92</ele>
        <time>2013-05-09T10:11:31Z</time>
      </trkpt>
      <trkpt lat="43.76217" lon="7.14938">
        <ele>836.82</ele>
        <time>2013-05-09T10:11:40Z</time>
      </trkpt>
      <trkpt lat="43.76227" lon="7.1494">
        <ele>836.85</ele>
        <time>2013-05-09T10:11:49Z</time>
      </trkpt>
      <trkpt lat="43.76236" lon="7.14939">
        <ele>836.42</ele>
        <time>2013-05-09T10:11:58Z</time>
      </trkpt>
      <trkpt lat="43.76246" lon="7.14946">
        <ele>835.27</ele>
        <time>2013-05-09T10:12:10Z</time>
      </trkpt>
      <trkpt lat="43.76256" lon="7.14946">
        <ele>833.93</ele>
        <time>2013-05-09T10:12:22Z</time>
      </trkpt>
      <trkpt lat="43.76267" lon="7.14944">
        <ele>833.01</ele>
        <time>2013-05-09T10:12:31Z</time>
      </trkpt>
      <trkpt lat="43.76277" lon="7.14941">
        <ele>831.77</ele>
        <time>2013-05-09T10:12:40Z</time>
      </trkpt>
      <trkpt lat="43.76286" lon="7.14943">
        <ele>830.7</ele>
        <time>2013-05-09T10:12:49Z</time>
      </trkpt>
      <trkpt lat="43.76296" lon="7.14944">
        <ele>829.72</ele>
        <time>2013-05-09T10:12:58Z</time>
      </trkpt>
      <trkpt lat="43.76305" lon="7.14947">
        <ele>828.01</ele>
        <time>2013-05-09T10:13:10Z</time>
      </trkpt>
      <trkpt lat="43.76313" lon="7.14941">
        <ele>826.37</ele>
        <time>2013-05-09T10:13:19Z</time>
      </trkpt>
      <trkpt lat="43.76322" lon="7.14939">
        <ele>824.66</ele>
        <time>2013-05-09T10:13:28Z</time>
      </trkpt>
      <trkpt lat="43.76331" lon="7.14932">
        <ele>822.25</ele>
        <time>2013-05-09T10:13:40Z</time>
      </trkpt>
      <trkpt lat="43.76341" lon="7.14922">
        <ele>820.41</ele>
        <time>2013-05-09T10:13:52Z</time>
      </trkpt>
      <trkpt lat="43.76348" lon="7.14912">
        <ele>819.42</ele>
        <time>2013-05-09T10:14:07Z</time>
      </trkpt>
      <trkpt lat="43.76359" lon="7.1491">
        <ele>818.64</ele>
        <time>2013-05-09T10:14:16Z</time>
      </trkpt>
      <trkpt lat="43.76368" lon="7.1491">
        <ele>817.84</ele>
        <time>2013-05-09T10:14:25Z</time>
      </trkpt>
      <trkpt lat="43.76377" lon="7.14905">
        <ele>816.79</ele>
        <time>2013-05-09T10:14:40Z</time>
      </trkpt>
      <trkpt lat="43.76389" lon="7.14896">
        <ele>816.62</ele>
        <time>2013-05-09T10:14:52Z</time>
      </trkpt>
      <trkpt lat="43.76398" lon="7.14894">
        <ele>816.95</ele>
        <time>2013-05-09T10:15:04Z</time>
      </trkpt>
      <trkpt lat="43.76407" lon="7.14891">
        <ele>816.95</ele>
        <time>2013-05-09T10:15:19Z</time>
      </trkpt>
      <trkpt lat="43.76416" lon="7.14886">
        <ele>816.78</ele>
        <time>2013-05-09T10:15:31Z</time>
      </trkpt>
      <trkpt lat="43.76425" lon="7.14881">
        <ele>816.3</ele>
        <time>2013-05-09T10:15:40Z</time>
      </trkpt>
      <trkpt lat="43.76436" lon="7.14872">
        <ele>815.45</ele>
        <time>2013-05-09T10:15:52Z</time>
      </trkpt>
      <trkpt lat="43.76445" lon="7.14864">
        <ele>815.08</ele>
        <time>2013-05-09T10:16:04Z</time>
      </trkpt>
      <trkpt lat="43.76453" lon="7.14855">
        <ele>815</ele>
        <time>2013-05-09T10:16:16Z</time>
      </trkpt>
      <trkpt lat="43.76461" lon="7.14844">
        <ele>814.83</ele>
        <time>2013-05-09T10:16:25Z</time>
      </trkpt>
      <trkpt lat="43.7647" lon="7.14837">
        <ele>814.45</ele>
        <time>2013-05-09T10:16:37Z</time>
      </trkpt>
      <trkpt lat="43.76478" lon="7.1483">
        <ele>814.15</ele>
        <time>2013-05-09T10:16:46Z</time>
      </trkpt>
      <trkpt lat="43.76488" lon="7.14825">
        <ele>813.51</ele>
        <time>2013-05-09T10:16:58Z</time>
      </trkpt>
      <trkpt lat="43.76497" lon="7.14818">
        <ele>813.16</ele>
        <time>2013-05-09T10:17:10Z</time>
      </trkpt>
      <trkpt lat="43.76505" lon="7.14811">
        <ele>812.91</ele>
        <time>2013-05-09T10:17:19Z</time>
      </trkpt>
      <trkpt lat="43.76513" lon="7.14802">
        <ele>812.49</ele>
        <time>2013-05-09T10:17:37Z</time>
      </trkpt>
      <trkpt lat="43.76522" lon="7.14793">
        <ele>811.77</ele>
        <time>2013-05-09T10:17:49Z</time>
      </trkpt>
      <trkpt lat="43.76529" lon="7.14785">
        <ele>810.71</ele>
        <time>2013-05-09T10:18:01Z</time>
      </trkpt>
      <trkpt lat="43.76538" lon="7.14777">
        <ele>809.55</ele>
        <time>2013-05-09T10:18:13Z</time>
      </trkpt>
      <trkpt lat="43.76547" lon="7.1477">
        <ele>808.56</ele>
        <time>2013-05-09T10:18:31Z</time>
      </trkpt>
      <trkpt lat="43.76557" lon="7.14766">
        <ele>808.02</ele>
        <time>2013-05-09T10:18:46Z</time>
      </trkpt>
      <trkpt lat="43.76566" lon="7.14764">
        <ele>807.49</ele>
        <time>2013-05-09T10:18:58Z</time>
      </trkpt>
      <trkpt lat="43.76578" lon="7.14764">
        <ele>806.39</ele>
        <time>2013-05-09T10:19:13Z</time>
      </trkpt>
      <trkpt lat="43.76587" lon="7.14764">
        <ele>805.51</ele>
        <time>2013-05-09T10:19:25Z</time>
      </trkpt>
      <trkpt lat="43.76597" lon="7.14758">
        <ele>804.88</ele>
        <time>2013-05-09T10:19:37Z</time>
      </trkpt>
      <trkpt lat="43.76606" lon="7.14751">
        <ele>803.97</ele>
        <time>2013-05-09T10:19:52Z</time>
      </trkpt>
      <trkpt lat="43.76614" lon="7.1474">
        <ele>802.51</ele>
        <time>2013-05-09T10:20:07Z</time>
      </trkpt>
      <trkpt lat="43.76624" lon="7.14733">
        <ele>801.93</ele>
        <time>2013-05-09T10:20:19Z</time>
      </trkpt>
      <trkpt lat="43.76632" lon="7.14725">
        <ele>800.78</ele>
        <time>2013-05-09T10:20:46Z</time>
      </trkpt>
      <trkpt lat="43.76641" lon="7.1472">
        <ele>800.19</ele>
        <time>2013-05-09T10:20:58Z</time>
      </trkpt>
      <trkpt lat="43.76652" lon="7.14712">
        <ele>799.82</ele>
        <time>2013-05-09T10:21:10Z</time>
      </trkpt>
      <trkpt lat="43.76659" lon="7.14704">
        <ele>799.96</ele>
        <time>2013-05-09T10:21:22Z</time>
      </trkpt>
      <trkpt lat="43.7667" lon="7.147">
        <ele>799.44</ele>
        <time>2013-05-09T10:21:40Z</time>
      </trkpt>
      <trkpt lat="43.7668" lon="7.14695">
        <ele>797.92</ele>
        <time>2013-05-09T10:21:55Z</time>
      </trkpt>
      <trkpt lat="43.76692" lon="7.14689">
        <ele>796.98</ele>
        <time>2013-05-09T10:22:07Z</time>
      </trkpt>
      <trkpt lat="43.76702" lon="7.14687">
        <ele>796.14</ele>
        <time>2013-05-09T10:22:19Z</time>
      </trkpt>
      <trkpt lat="43.76712" lon="7.14686">
        <ele>795.09</ele>
        <time>2013-05-09T10:22:31Z</time>
      </trkpt>
      <trkpt lat="43.76721" lon="7.14684">
        <ele>791.99</ele>
        <time>2013-05-09T10:22:49Z</time>
      </trkpt>
      <trkpt lat="43.7673" lon="7.14678">
        <ele>789.9</ele>
        <time>2013-05-09T10:23:04Z</time>
      </trkpt>
      <trkpt lat="43.76741" lon="7.14676">
        <ele>789.13</ele>
        <time>2013-05-09T10:23:13Z</time>
      </trkpt>
      <trkpt lat="43.76752" lon="7.14675">
        <ele>788.45</ele>
        <time>2013-05-09T10:23:22Z</time>
      </trkpt>
      <trkpt lat="43.76761" lon="7.14674">
        <ele>787.72</ele>
        <time>2013-05-09T10:23:31Z</time>
      </trkpt>
      <trkpt lat="43.7677" lon="7.14679">
        <ele>786.38</ele>
        <time>2013-05-09T10:23:43Z</time>
      </trkpt>
      <trkpt lat="43.76779" lon="7.14681">
        <ele>784.28</ele>
        <time>2013-05-09T10:23:58Z</time>
      </trkpt>
      <trkpt lat="43.76789" lon="7.14684">
        <ele>782.46</ele>
        <time>2013-05-09T10:24:10Z</time>
      </trkpt>
      <trkpt lat="43.76801" lon="7.14686">
        <ele>779.2</ele>
        <time>2013-05-09T10:24:28Z</time>
      </trkpt>
      <trkpt lat="43.76812" lon="7.14683">
        <ele>777.83</ele>
        <time>2013-05-09T10:24:37Z</time>
      </trkpt>
      <trkpt lat="43.76822" lon="7.14675">
        <ele>777.03</ele>
        <time>2013-05-09T10:24:43Z</time>
      </trkpt>
      <trkpt lat="43.76831" lon="7.14668">
        <ele>775.35</ele>
        <time>2013-05-09T10:24:55Z</time>
      </trkpt>
      <trkpt lat="43.76842" lon="7.14656">
        <ele>773.71</ele>
        <time>2013-05-09T10:25:13Z</time>
      </trkpt>
      <trkpt lat="43.76851" lon="7.1465">
        <ele>773</ele>
        <time>2013-05-09T10:25:25Z</time>
      </trkpt>
      <trkpt lat="43.7686" lon="7.14641">
        <ele>772.66</ele>
        <time>2013-05-09T10:25:34Z</time>
      </trkpt>
      <trkpt lat="43.76868" lon="7.1463">
        <ele>771.96</ele>
        <time>2013-05-09T10:25:46Z</time>
      </trkpt>
      <trkpt lat="43.76876" lon="7.1462">
        <ele>770.16</ele>
        <time>2013-05-09T10:25:58Z</time>
      </trkpt>
      <trkpt lat="43.76884" lon="7.14611">
        <ele>769.34</ele>
        <time>2013-05-09T10:26:04Z</time>
      </trkpt>
      <trkpt lat="43.76893" lon="7.14607">
        <ele>768.8</ele>
        <time>2013-05-09T10:26:13Z</time>
      </trkpt>
      <trkpt lat="43.76903" lon="7.14599">
        <ele>767.32</ele>
        <time>2013-05-09T10:26:28Z</time>
      </trkpt>
      <trkpt lat="43.76911" lon="7.14589">
        <ele>765.49</ele>
        <time>2013-05-09T10:26:40Z</time>
      </trkpt>
      <trkpt lat="43.76921" lon="7.14583">
        <ele>763.43</ele>
        <time>2013-05-09T10:26:58Z</time>
      </trkpt>
      <trkpt lat="43.76929" lon="7.14575">
        <ele>762.96</ele>
        <time>2013-05-09T10:27:07Z</time>
      </trkpt>
      <trkpt lat="43.76938" lon="7.14567">
        <ele>762.47</ele>
        <time>2013-05-09T10:27:16Z</time>
      </trkpt>
      <trkpt lat="43.76945" lon="7.1456">
        <ele>761.37</ele>
        <time>2013-05-09T10:27:31Z</time>
      </trkpt>
      <trkpt lat="43.76952" lon="7.14549">
        <ele>760.2</ele>
        <time>2013-05-09T10:27:43Z</time>
      </trkpt>
      <trkpt lat="43.76961" lon="7.14538">
        <ele>758.63</ele>
        <time>2013-05-09T10:28:04Z</time>
      </trkpt>
      <trkpt lat="43.7697" lon="7.14533">
        <ele>757.28</ele>
        <time>2013-05-09T10:28:16Z</time>
      </trkpt>
      <trkpt lat="43.7698" lon="7.14528">
        <ele>756.16</ele>
        <time>2013-05-09T10:28:25Z</time>
      </trkpt>
      <trkpt lat="43.76988" lon="7.14521">
        <ele>754.73</ele>
        <time>2013-05-09T10:28:37Z</time>
      </trkpt>
      <trkpt lat="43.76996" lon="7.14512">
        <ele>752.13</ele>
        <time>2013-05-09T10:29:16Z</time>
      </trkpt>
      <trkpt lat="43.76998" lon="7.14499">
        <ele>750.17</ele>
        <time>2013-05-09T10:29:31Z</time>
      </trkpt>
      <trkpt lat="43.77" lon="7.14485">
        <ele>750.1</ele>
        <time>2013-05-09T10:29:46Z</time>
      </trkpt>
      <trkpt lat="43.7701" lon="7.14477">
        <ele>749.77</ele>
        <time>2013-05-09T10:30:13Z</time>
      </trkpt>
      <trkpt lat="43.77013" lon="7.14464">
        <ele>749.04</ele>
        <time>2013-05-09T10:30:25Z</time>
      </trkpt>
      <trkpt lat="43.77017" lon="7.14452">
        <ele>746.71</ele>
        <time>2013-05-09T10:31:13Z</time>
      </trkpt>
      <trkpt lat="43.77027" lon="7.14449">
        <ele>746.15</ele>
        <time>2013-05-09T10:31:49Z</time>
      </trkpt>
      <trkpt lat="43.77035" lon="7.14443">
        <ele>746.3</ele>
        <time>2013-05-09T10:32:01Z</time>
      </trkpt>
      <trkpt lat="43.77043" lon="7.14431">
        <ele>746.49</ele>
        <time>2013-05-09T10:32:16Z</time>
      </trkpt>
      <trkpt lat="43.77051" lon="7.14423">
        <ele>746.77</ele>
        <time>2013-05-09T10:32:31Z</time>
      </trkpt>
      <trkpt lat="43.77058" lon="7.14411">
        <ele>746.99</ele>
        <time>2013-05-09T10:32:46Z</time>
      </trkpt>
      <trkpt lat="43.77066" lon="7.14405">
        <ele>747.33</ele>
        <time>2013-05-09T10:33:01Z</time>
      </trkpt>
      <trkpt lat="43.77076" lon="7.14404">
        <ele>749.72</ele>
        <time>2013-05-09T10:35:19Z</time>
      </trkpt>
      <trkpt lat="43.77086" lon="7.14396">
        <ele>749.95</ele>
        <time>2013-05-09T10:35:34Z</time>
      </trkpt>
      <trkpt lat="43.77096" lon="7.1439">
        <ele>750.37</ele>
        <time>2013-05-09T10:35:49Z</time>
      </trkpt>
      <trkpt lat="43.77106" lon="7.1438">
        <ele>750.59</ele>
        <time>2013-05-09T10:36:04Z</time>
      </trkpt>
      <trkpt lat="43.77113" lon="7.14369">
        <ele>750.5</ele>
        <time>2013-05-09T10:36:13Z</time>
      </trkpt>
      <trkpt lat="43.7712" lon="7.14358">
        <ele>750.2</ele>
        <time>2013-05-09T10:36:25Z</time>
      </trkpt>
      <trkpt lat="43.77127" lon="7.14348">
        <ele>751.08</ele>
        <time>2013-05-09T10:37:04Z</time>
      </trkpt>
      <trkpt lat="43.77136" lon="7.14338">
        <ele>751.36</ele>
        <time>2013-05-09T10:37:13Z</time>
      </trkpt>
      <trkpt lat="43.77144" lon="7.14329">
        <ele>751.95</ele>
        <time>2013-05-09T10:37:22Z</time>
      </trkpt>
      <trkpt lat="43.77153" lon="7.14322">
        <ele>752.76</ele>
        <time>2013-05-09T10:37:31Z</time>
      </trkpt>
      <trkpt lat="43.77161" lon="7.14311">
        <ele>753.3</ele>
        <time>2013-05-09T10:37:40Z</time>
      </trkpt>
      <trkpt lat="43.77166" lon="7.14301">
        <ele>753.2</ele>
        <time>2013-05-09T10:37:49Z</time>
      </trkpt>
      <trkpt lat="43.77172" lon="7.14288">
        <ele>752.99</ele>
        <time>2013-05-09T10:37:58Z</time>
      </trkpt>
      <trkpt lat="43.7718" lon="7.14276">
        <ele>752.86</ele>
        <time>2013-05-09T10:38:07Z</time>
      </trkpt>
      <trkpt lat="43.77189" lon="7.14267">
        <ele>753.18</ele>
        <time>2013-05-09T10:38:19Z</time>
      </trkpt>
      <trkpt lat="43.77199" lon="7.14262">
        <ele>753.25</ele>
        <time>2013-05-09T10:38:28Z</time>
      </trkpt>
      <trkpt lat="43.7721" lon="7.14255">
        <ele>753.28</ele>
        <time>2013-05-09T10:38:37Z</time>
      </trkpt>
      <trkpt lat="43.7722" lon="7.14246">
        <ele>753.4</ele>
        <time>2013-05-09T10:38:46Z</time>
      </trkpt>
      <trkpt lat="43.77227" lon="7.14238">
        <ele>753.61</ele>
        <time>2013-05-09T10:38:55Z</time>
      </trkpt>
      <trkpt lat="43.77233" lon="7.14228">
        <ele>753.94</ele>
        <time>2013-05-09T10:39:04Z</time>
      </trkpt>
      <trkpt lat="43.77239" lon="7.14218">
        <ele>754.43</ele>
        <time>2013-05-09T10:39:13Z</time>
      </trkpt>
      <trkpt lat="43.77246" lon="7.14204">
        <ele>754.93</ele>
        <time>2013-05-09T10:39:25Z</time>
      </trkpt>
      <trkpt lat="43.77246" lon="7.14188">
        <ele>755.82</ele>
        <time>2013-05-09T10:39:37Z</time>
      </trkpt>
      <trkpt lat="43.77243" lon="7.14175">
        <ele>756.65</ele>
        <time>2013-05-09T10:39:46Z</time>
      </trkpt>
      <trkpt lat="43.77244" lon="7.14163">
        <ele>757.2</ele>
        <time>2013-05-09T10:39:52Z</time>
      </trkpt>
      <trkpt lat="43.77253" lon="7.14154">
        <ele>758.1</ele>
        <time>2013-05-09T10:40:01Z</time>
      </trkpt>
      <trkpt lat="43.77261" lon="7.14144">
        <ele>759.01</ele>
        <time>2013-05-09T10:40:10Z</time>
      </trkpt>
      <trkpt lat="43.77268" lon="7.14135">
        <ele>759.79</ele>
        <time>2013-05-09T10:40:19Z</time>
      </trkpt>
      <trkpt lat="43.77274" lon="7.14122">
        <ele>760.6</ele>
        <time>2013-05-09T10:40:31Z</time>
      </trkpt>
      <trkpt lat="43.77279" lon="7.1411">
        <ele>761.06</ele>
        <time>2013-05-09T10:40:40Z</time>
      </trkpt>
      <trkpt lat="43.77284" lon="7.14099">
        <ele>761.63</ele>
        <time>2013-05-09T10:40:49Z</time>
      </trkpt>
      <trkpt lat="43.77289" lon="7.14086">
        <ele>762.57</ele>
        <time>2013-05-09T10:41:01Z</time>
      </trkpt>
      <trkpt lat="43.77296" lon="7.14075">
        <ele>763.32</ele>
        <time>2013-05-09T10:41:13Z</time>
      </trkpt>
      <trkpt lat="43.77306" lon="7.14068">
        <ele>764.04</ele>
        <time>2013-05-09T10:41:22Z</time>
      </trkpt>
      <trkpt lat="43.77314" lon="7.14058">
        <ele>764.94</ele>
        <time>2013-05-09T10:41:31Z</time>
      </trkpt>
      <trkpt lat="43.77322" lon="7.14047">
        <ele>766.07</ele>
        <time>2013-05-09T10:41:43Z</time>
      </trkpt>
      <trkpt lat="43.77332" lon="7.14044">
        <ele>766.87</ele>
        <time>2013-05-09T10:41:52Z</time>
      </trkpt>
      <trkpt lat="43.77341" lon="7.14042">
        <ele>767.89</ele>
        <time>2013-05-09T10:42:01Z</time>
      </trkpt>
      <trkpt lat="43.7735" lon="7.14037">
        <ele>769.12</ele>
        <time>2013-05-09T10:42:13Z</time>
      </trkpt>
      <trkpt lat="43.7736" lon="7.14036">
        <ele>770.68</ele>
        <time>2013-05-09T10:42:28Z</time>
      </trkpt>
      <trkpt lat="43.77368" lon="7.14026">
        <ele>772.66</ele>
        <time>2013-05-09T10:42:43Z</time>
      </trkpt>
      <trkpt lat="43.77371" lon="7.14011">
        <ele>774.13</ele>
        <time>2013-05-09T10:42:55Z</time>
      </trkpt>
      <trkpt lat="43.7738" lon="7.14003">
        <ele>775.36</ele>
        <time>2013-05-09T10:43:07Z</time>
      </trkpt>
      <trkpt lat="43.77391" lon="7.14005">
        <ele>776.36</ele>
        <time>2013-05-09T10:43:19Z</time>
      </trkpt>
      <trkpt lat="43.774" lon="7.14008">
        <ele>777.06</ele>
        <time>2013-05-09T10:43:28Z</time>
      </trkpt>
      <trkpt lat="43.7741" lon="7.14007">
        <ele>777.98</ele>
        <time>2013-05-09T10:43:43Z</time>
      </trkpt>
      <trkpt lat="43.77417" lon="7.13999">
        <ele>778.52</ele>
        <time>2013-05-09T10:43:55Z</time>
      </trkpt>
      <trkpt lat="43.77426" lon="7.1399">
        <ele>778.95</ele>
        <time>2013-05-09T10:44:07Z</time>
      </trkpt>
      <trkpt lat="43.7745" lon="7.13997">
        <ele>782.38</ele>
        <time>2013-05-09T10:45:23Z</time>
      </trkpt>
      <trkpt lat="43.77458" lon="7.13989">
        <ele>784.34</ele>
        <time>2013-05-09T10:46:05Z</time>
      </trkpt>
      <trkpt lat="43.77465" lon="7.13981">
        <ele>784.9</ele>
        <time>2013-05-09T10:46:17Z</time>
      </trkpt>
      <trkpt lat="43.77474" lon="7.13978">
        <ele>785.88</ele>
        <time>2013-05-09T10:46:32Z</time>
      </trkpt>
      <trkpt lat="43.77481" lon="7.13968">
        <ele>786.95</ele>
        <time>2013-05-09T10:46:59Z</time>
      </trkpt>
      <trkpt lat="43.77492" lon="7.1397">
        <ele>788.82</ele>
        <time>2013-05-09T10:47:26Z</time>
      </trkpt>
      <trkpt lat="43.77489" lon="7.13958">
        <ele>792.43</ele>
        <time>2013-05-09T10:50:32Z</time>
      </trkpt>
      <trkpt lat="43.77491" lon="7.13944">
        <ele>792.3</ele>
        <time>2013-05-09T10:50:59Z</time>
      </trkpt>
      <trkpt lat="43.7749" lon="7.13931">
        <ele>792.13</ele>
        <time>2013-05-09T10:51:27Z</time>
      </trkpt>
      <trkpt lat="43.77484" lon="7.13921">
        <ele>792.21</ele>
        <time>2013-05-09T10:51:45Z</time>
      </trkpt>
      <trkpt lat="43.77477" lon="7.13909">
        <ele>792.63</ele>
        <time>2013-05-09T10:52:21Z</time>
      </trkpt>
      <trkpt lat="43.77468" lon="7.13902">
        <ele>792.79</ele>
        <time>2013-05-09T10:52:33Z</time>
      </trkpt>
      <trkpt lat="43.77496" lon="7.13972">
        <ele>785.02</ele>
        <time>2013-05-09T11:22:21Z</time>
      </trkpt>
      <trkpt lat="43.77485" lon="7.13976">
        <ele>795.42</ele>
        <time>2013-05-09T11:24:54Z</time>
      </trkpt>
      <trkpt lat="43.77475" lon="7.13981">
        <ele>795.22</ele>
        <time>2013-05-09T11:25:23Z</time>
      </trkpt>
      <trkpt lat="43.77466" lon="7.13981">
        <ele>794.43</ele>
        <time>2013-05-09T11:30:08Z</time>
      </trkpt>
      <trkpt lat="43.77469" lon="7.13969">
        <ele>790.23</ele>
        <time>2013-05-09T11:33:08Z</time>
      </trkpt>
      <trkpt lat="43.77475" lon="7.1398">
        <ele>790.69</ele>
        <time>2013-05-09T11:33:58Z</time>
      </trkpt>
      <trkpt lat="43.77465" lon="7.13981">
        <ele>791.99</ele>
        <time>2013-05-09T11:34:55Z</time>
      </trkpt>
      <trkpt lat="43.77474" lon="7.13977">
        <ele>790.79</ele>
        <time>2013-05-09T11:38:04Z</time>
      </trkpt>
      <trkpt lat="43.77477" lon="7.13962">
        <ele>787.78</ele>
        <time>2013-05-09T11:44:13Z</time>
      </trkpt>
      <trkpt lat="43.77484" lon="7.13951">
        <ele>788.37</ele>
        <time>2013-05-09T11:44:28Z</time>
      </trkpt>
      <trkpt lat="43.7749" lon="7.1394">
        <ele>789.88</ele>
        <time>2013-05-09T11:44:46Z</time>
      </trkpt>
      <trkpt lat="43.77498" lon="7.13931">
        <ele>790.54</ele>
        <time>2013-05-09T11:44:58Z</time>
      </trkpt>
      <trkpt lat="43.77504" lon="7.13921">
        <ele>790.53</ele>
        <time>2013-05-09T11:45:16Z</time>
      </trkpt>
      <trkpt lat="43.7751" lon="7.13911">
        <ele>792.53</ele>
        <time>2013-05-09T11:45:58Z</time>
      </trkpt>
      <trkpt lat="43.77512" lon="7.13898">
        <ele>793.31</ele>
        <time>2013-05-09T11:46:46Z</time>
      </trkpt>
      <trkpt lat="43.77515" lon="7.13885">
        <ele>793.94</ele>
        <time>2013-05-09T11:47:01Z</time>
      </trkpt>
      <trkpt lat="43.7752" lon="7.13875">
        <ele>795.97</ele>
        <time>2013-05-09T11:47:19Z</time>
      </trkpt>
      <trkpt lat="43.77522" lon="7.13862">
        <ele>797.93</ele>
        <time>2013-05-09T11:47:34Z</time>
      </trkpt>
      <trkpt lat="43.77526" lon="7.13849">
        <ele>799.01</ele>
        <time>2013-05-09T11:47:52Z</time>
      </trkpt>
      <trkpt lat="43.77525" lon="7.13835">
        <ele>800.74</ele>
        <time>2013-05-09T11:48:04Z</time>
      </trkpt>
      <trkpt lat="43.77521" lon="7.13824">
        <ele>801.88</ele>
        <time>2013-05-09T11:48:13Z</time>
      </trkpt>
      <trkpt lat="43.77512" lon="7.1382">
        <ele>803.76</ele>
        <time>2013-05-09T11:48:31Z</time>
      </trkpt>
      <trkpt lat="43.77501" lon="7.13818">
        <ele>805.86</ele>
        <time>2013-05-09T11:48:49Z</time>
      </trkpt>
      <trkpt lat="43.7749" lon="7.13818">
        <ele>808.56</ele>
        <time>2013-05-09T11:49:01Z</time>
      </trkpt>
      <trkpt lat="43.77481" lon="7.13815">
        <ele>811.58</ele>
        <time>2013-05-09T11:49:16Z</time>
      </trkpt>
      <trkpt lat="43.7747" lon="7.13812">
        <ele>813.69</ele>
        <time>2013-05-09T11:49:28Z</time>
      </trkpt>
      <trkpt lat="43.77461" lon="7.13815">
        <ele>814.81</ele>
        <time>2013-05-09T11:49:43Z</time>
      </trkpt>
      <trkpt lat="43.77451" lon="7.13817">
        <ele>815.16</ele>
        <time>2013-05-09T11:49:55Z</time>
      </trkpt>
      <trkpt lat="43.77442" lon="7.13817">
        <ele>814.72</ele>
        <time>2013-05-09T11:50:13Z</time>
      </trkpt>
      <trkpt lat="43.77431" lon="7.13814">
        <ele>814.42</ele>
        <time>2013-05-09T11:50:25Z</time>
      </trkpt>
      <trkpt lat="43.77419" lon="7.13812">
        <ele>814.52</ele>
        <time>2013-05-09T11:50:40Z</time>
      </trkpt>
      <trkpt lat="43.77408" lon="7.13812">
        <ele>815.37</ele>
        <time>2013-05-09T11:50:55Z</time>
      </trkpt>
      <trkpt lat="43.77399" lon="7.13808">
        <ele>816.45</ele>
        <time>2013-05-09T11:51:07Z</time>
      </trkpt>
      <trkpt lat="43.7739" lon="7.13806">
        <ele>817.7</ele>
        <time>2013-05-09T11:51:25Z</time>
      </trkpt>
      <trkpt lat="43.7738" lon="7.13808">
        <ele>818.21</ele>
        <time>2013-05-09T11:51:40Z</time>
      </trkpt>
      <trkpt lat="43.77372" lon="7.13815">
        <ele>822.45</ele>
        <time>2013-05-09T11:52:49Z</time>
      </trkpt>
      <trkpt lat="43.77362" lon="7.13813">
        <ele>824.14</ele>
        <time>2013-05-09T11:52:58Z</time>
      </trkpt>
      <trkpt lat="43.77352" lon="7.13811">
        <ele>825.86</ele>
        <time>2013-05-09T11:53:10Z</time>
      </trkpt>
      <trkpt lat="43.77344" lon="7.13799">
        <ele>827.01</ele>
        <time>2013-05-09T11:53:28Z</time>
      </trkpt>
      <trkpt lat="43.77339" lon="7.13785">
        <ele>827.16</ele>
        <time>2013-05-09T11:53:40Z</time>
      </trkpt>
      <trkpt lat="43.77332" lon="7.13774">
        <ele>827.12</ele>
        <time>2013-05-09T11:53:52Z</time>
      </trkpt>
      <trkpt lat="43.77321" lon="7.13776">
        <ele>828.95</ele>
        <time>2013-05-09T11:54:25Z</time>
      </trkpt>
      <trkpt lat="43.77329" lon="7.13764">
        <ele>832.64</ele>
        <time>2013-05-09T11:55:16Z</time>
      </trkpt>
      <trkpt lat="43.77319" lon="7.1377">
        <ele>834.49</ele>
        <time>2013-05-09T11:56:01Z</time>
      </trkpt>
      <trkpt lat="43.7731" lon="7.13767">
        <ele>834.09</ele>
        <time>2013-05-09T11:56:25Z</time>
      </trkpt>
      <trkpt lat="43.77306" lon="7.13755">
        <ele>833.71</ele>
        <time>2013-05-09T11:56:52Z</time>
      </trkpt>
      <trkpt lat="43.77297" lon="7.13749">
        <ele>830.9</ele>
        <time>2013-05-09T11:59:01Z</time>
      </trkpt>
      <trkpt lat="43.7729" lon="7.13758">
        <ele>831.05</ele>
        <time>2013-05-09T11:59:15Z</time>
      </trkpt>
      <trkpt lat="43.77288" lon="7.13774">
        <ele>831.31</ele>
        <time>2013-05-09T11:59:30Z</time>
      </trkpt>
      <trkpt lat="43.77278" lon="7.1377">
        <ele>831.97</ele>
        <time>2013-05-09T11:59:54Z</time>
      </trkpt>
      <trkpt lat="43.77269" lon="7.13765">
        <ele>831.74</ele>
        <time>2013-05-09T12:00:09Z</time>
      </trkpt>
      <trkpt lat="43.77259" lon="7.13766">
        <ele>831.67</ele>
        <time>2013-05-09T12:00:24Z</time>
      </trkpt>
      <trkpt lat="43.7725" lon="7.13772">
        <ele>831.72</ele>
        <time>2013-05-09T12:00:36Z</time>
      </trkpt>
      <trkpt lat="43.77241" lon="7.13779">
        <ele>831.54</ele>
        <time>2013-05-09T12:00:48Z</time>
      </trkpt>
      <trkpt lat="43.77233" lon="7.13785">
        <ele>830.73</ele>
        <time>2013-05-09T12:01:09Z</time>
      </trkpt>
      <trkpt lat="43.77228" lon="7.13798">
        <ele>829.85</ele>
        <time>2013-05-09T12:01:27Z</time>
      </trkpt>
      <trkpt lat="43.77222" lon="7.13809">
        <ele>829.21</ele>
        <time>2013-05-09T12:01:36Z</time>
      </trkpt>
      <trkpt lat="43.77214" lon="7.13818">
        <ele>828.46</ele>
        <time>2013-05-09T12:01:48Z</time>
      </trkpt>
      <trkpt lat="43.77203" lon="7.13821">
        <ele>827.72</ele>
        <time>2013-05-09T12:02:00Z</time>
      </trkpt>
      <trkpt lat="43.77194" lon="7.13827">
        <ele>827.1</ele>
        <time>2013-05-09T12:02:09Z</time>
      </trkpt>
      <trkpt lat="43.77186" lon="7.13831">
        <ele>825.99</ele>
        <time>2013-05-09T12:02:18Z</time>
      </trkpt>
      <trkpt lat="43.77177" lon="7.13836">
        <ele>824.99</ele>
        <time>2013-05-09T12:02:27Z</time>
      </trkpt>
      <trkpt lat="43.7717" lon="7.13845">
        <ele>823.68</ele>
        <time>2013-05-09T12:02:36Z</time>
      </trkpt>
      <trkpt lat="43.77163" lon="7.13854">
        <ele>822.38</ele>
        <time>2013-05-09T12:02:45Z</time>
      </trkpt>
      <trkpt lat="43.77153" lon="7.1386">
        <ele>821.06</ele>
        <time>2013-05-09T12:02:57Z</time>
      </trkpt>
      <trkpt lat="43.77145" lon="7.13866">
        <ele>819.45</ele>
        <time>2013-05-09T12:03:12Z</time>
      </trkpt>
      <trkpt lat="43.77134" lon="7.13868">
        <ele>818.07</ele>
        <time>2013-05-09T12:03:24Z</time>
      </trkpt>
      <trkpt lat="43.77121" lon="7.13862">
        <ele>816.77</ele>
        <time>2013-05-09T12:03:36Z</time>
      </trkpt>
      <trkpt lat="43.77112" lon="7.13866">
        <ele>816.36</ele>
        <time>2013-05-09T12:03:46Z</time>
      </trkpt>
      <trkpt lat="43.77101" lon="7.13862">
        <ele>815.9</ele>
        <time>2013-05-09T12:03:58Z</time>
      </trkpt>
      <trkpt lat="43.7709" lon="7.13861">
        <ele>815.51</ele>
        <time>2013-05-09T12:04:10Z</time>
      </trkpt>
      <trkpt lat="43.7708" lon="7.13859">
        <ele>814.94</ele>
        <time>2013-05-09T12:04:25Z</time>
      </trkpt>
      <trkpt lat="43.77069" lon="7.13855">
        <ele>814.01</ele>
        <time>2013-05-09T12:04:37Z</time>
      </trkpt>
      <trkpt lat="43.77058" lon="7.13855">
        <ele>813.73</ele>
        <time>2013-05-09T12:04:49Z</time>
      </trkpt>
      <trkpt lat="43.77049" lon="7.13851">
        <ele>813.52</ele>
        <time>2013-05-09T12:05:01Z</time>
      </trkpt>
      <trkpt lat="43.77038" lon="7.13849">
        <ele>813.18</ele>
        <time>2013-05-09T12:05:19Z</time>
      </trkpt>
      <trkpt lat="43.77028" lon="7.13846">
        <ele>813.26</ele>
        <time>2013-05-09T12:05:34Z</time>
      </trkpt>
      <trkpt lat="43.7702" lon="7.13851">
        <ele>814.66</ele>
        <time>2013-05-09T12:06:43Z</time>
      </trkpt>
      <trkpt lat="43.77013" lon="7.13862">
        <ele>815.42</ele>
        <time>2013-05-09T12:07:42Z</time>
      </trkpt>
      <trkpt lat="43.77004" lon="7.13869">
        <ele>814.6</ele>
        <time>2013-05-09T12:07:57Z</time>
      </trkpt>
      <trkpt lat="43.76992" lon="7.1387">
        <ele>813.66</ele>
        <time>2013-05-09T12:08:09Z</time>
      </trkpt>
      <trkpt lat="43.76983" lon="7.13867">
        <ele>812.68</ele>
        <time>2013-05-09T12:08:18Z</time>
      </trkpt>
      <trkpt lat="43.76972" lon="7.13863">
        <ele>811.78</ele>
        <time>2013-05-09T12:08:30Z</time>
      </trkpt>
      <trkpt lat="43.76962" lon="7.13862">
        <ele>811.06</ele>
        <time>2013-05-09T12:08:42Z</time>
      </trkpt>
      <trkpt lat="43.76953" lon="7.1387">
        <ele>810.82</ele>
        <time>2013-05-09T12:09:33Z</time>
      </trkpt>
      <trkpt lat="43.7695" lon="7.13858">
        <ele>811.04</ele>
        <time>2013-05-09T12:09:51Z</time>
      </trkpt>
      <trkpt lat="43.76944" lon="7.13847">
        <ele>810</ele>
        <time>2013-05-09T12:10:00Z</time>
      </trkpt>
      <trkpt lat="43.76931" lon="7.13847">
        <ele>809.22</ele>
        <time>2013-05-09T12:10:09Z</time>
      </trkpt>
      <trkpt lat="43.76922" lon="7.13849">
        <ele>808.75</ele>
        <time>2013-05-09T12:10:15Z</time>
      </trkpt>
      <trkpt lat="43.76911" lon="7.13849">
        <ele>808.38</ele>
        <time>2013-05-09T12:10:24Z</time>
      </trkpt>
      <trkpt lat="43.769" lon="7.13848">
        <ele>808.1</ele>
        <time>2013-05-09T12:10:33Z</time>
      </trkpt>
      <trkpt lat="43.76888" lon="7.13849">
        <ele>807.68</ele>
        <time>2013-05-09T12:10:45Z</time>
      </trkpt>
      <trkpt lat="43.76877" lon="7.13851">
        <ele>807.39</ele>
        <time>2013-05-09T12:10:54Z</time>
      </trkpt>
      <trkpt lat="43.76865" lon="7.13856">
        <ele>807.31</ele>
        <time>2013-05-09T12:11:03Z</time>
      </trkpt>
      <trkpt lat="43.76854" lon="7.13859">
        <ele>807.4</ele>
        <time>2013-05-09T12:11:15Z</time>
      </trkpt>
      <trkpt lat="43.76846" lon="7.13865">
        <ele>807.47</ele>
        <time>2013-05-09T12:11:24Z</time>
      </trkpt>
      <trkpt lat="43.76837" lon="7.13873">
        <ele>807.73</ele>
        <time>2013-05-09T12:11:33Z</time>
      </trkpt>
      <trkpt lat="43.76828" lon="7.13881">
        <ele>808.1</ele>
        <time>2013-05-09T12:11:51Z</time>
      </trkpt>
      <trkpt lat="43.76819" lon="7.13881">
        <ele>808.65</ele>
        <time>2013-05-09T12:12:45Z</time>
      </trkpt>
      <trkpt lat="43.76811" lon="7.13873">
        <ele>808.14</ele>
        <time>2013-05-09T12:12:57Z</time>
      </trkpt>
      <trkpt lat="43.76787" lon="7.13868">
        <ele>806.91</ele>
        <time>2013-05-09T12:13:32Z</time>
      </trkpt>
      <trkpt lat="43.76777" lon="7.13863">
        <ele>806.23</ele>
        <time>2013-05-09T12:13:50Z</time>
      </trkpt>
      <trkpt lat="43.76768" lon="7.13865">
        <ele>805.22</ele>
        <time>2013-05-09T12:14:05Z</time>
      </trkpt>
      <trkpt lat="43.76759" lon="7.13869">
        <ele>805.58</ele>
        <time>2013-05-09T12:14:41Z</time>
      </trkpt>
      <trkpt lat="43.76759" lon="7.13882">
        <ele>805.61</ele>
        <time>2013-05-09T12:14:59Z</time>
      </trkpt>
      <trkpt lat="43.76749" lon="7.13885">
        <ele>802.1</ele>
        <time>2013-05-09T12:18:15Z</time>
      </trkpt>
      <trkpt lat="43.76742" lon="7.13893">
        <ele>798.76</ele>
        <time>2013-05-09T12:18:42Z</time>
      </trkpt>
      <trkpt lat="43.76732" lon="7.13895">
        <ele>796.6</ele>
        <time>2013-05-09T12:19:06Z</time>
      </trkpt>
      <trkpt lat="43.76724" lon="7.139">
        <ele>794.96</ele>
        <time>2013-05-09T12:19:30Z</time>
      </trkpt>
      <trkpt lat="43.76715" lon="7.13908">
        <ele>794.11</ele>
        <time>2013-05-09T12:19:39Z</time>
      </trkpt>
      <trkpt lat="43.7671" lon="7.1392">
        <ele>793</ele>
        <time>2013-05-09T12:19:48Z</time>
      </trkpt>
      <trkpt lat="43.76704" lon="7.13929">
        <ele>791.7</ele>
        <time>2013-05-09T12:19:57Z</time>
      </trkpt>
      <trkpt lat="43.76695" lon="7.13934">
        <ele>790.49</ele>
        <time>2013-05-09T12:20:06Z</time>
      </trkpt>
      <trkpt lat="43.76693" lon="7.13947">
        <ele>789.68</ele>
        <time>2013-05-09T12:20:24Z</time>
      </trkpt>
      <trkpt lat="43.76692" lon="7.1396">
        <ele>790.09</ele>
        <time>2013-05-09T12:20:39Z</time>
      </trkpt>
      <trkpt lat="43.76699" lon="7.13971">
        <ele>790.83</ele>
        <time>2013-05-09T12:21:12Z</time>
      </trkpt>
      <trkpt lat="43.76697" lon="7.13983">
        <ele>791.58</ele>
        <time>2013-05-09T12:21:36Z</time>
      </trkpt>
      <trkpt lat="43.76701" lon="7.13994">
        <ele>793.01</ele>
        <time>2013-05-09T12:22:15Z</time>
      </trkpt>
      <trkpt lat="43.76705" lon="7.14006">
        <ele>794.43</ele>
        <time>2013-05-09T12:22:56Z</time>
      </trkpt>
      <trkpt lat="43.76711" lon="7.14017">
        <ele>796.25</ele>
        <time>2013-05-09T12:23:23Z</time>
      </trkpt>
      <trkpt lat="43.76712" lon="7.1403">
        <ele>797.81</ele>
        <time>2013-05-09T12:23:44Z</time>
      </trkpt>
      <trkpt lat="43.76704" lon="7.14021">
        <ele>797.88</ele>
        <time>2013-05-09T12:24:11Z</time>
      </trkpt>
      <trkpt lat="43.76705" lon="7.14035">
        <ele>798.68</ele>
        <time>2013-05-09T12:24:26Z</time>
      </trkpt>
      <trkpt lat="43.7671" lon="7.14049">
        <ele>798.18</ele>
        <time>2013-05-09T12:25:20Z</time>
      </trkpt>
      <trkpt lat="43.76703" lon="7.14061">
        <ele>796.66</ele>
        <time>2013-05-09T12:25:38Z</time>
      </trkpt>
      <trkpt lat="43.76705" lon="7.14055">
        <ele>797.62</ele>
        <time>2013-05-09T12:26:49Z</time>
      </trkpt>
      <trkpt lat="43.76711" lon="7.14068">
        <ele>799.85</ele>
        <time>2013-05-09T12:27:44Z</time>
      </trkpt>
      <trkpt lat="43.76715" lon="7.14054">
        <ele>801.82</ele>
        <time>2013-05-09T12:28:41Z</time>
      </trkpt>
      <trkpt lat="43.76712" lon="7.14039">
        <ele>802.05</ele>
        <time>2013-05-09T12:29:35Z</time>
      </trkpt>
      <trkpt lat="43.76708" lon="7.14024">
        <ele>800.69</ele>
        <time>2013-05-09T12:30:14Z</time>
      </trkpt>
      <trkpt lat="43.76708" lon="7.14011">
        <ele>799.89</ele>
        <time>2013-05-09T12:30:47Z</time>
      </trkpt>
      <trkpt lat="43.76703" lon="7.14">
        <ele>800.28</ele>
        <time>2013-05-09T12:31:17Z</time>
      </trkpt>
      <trkpt lat="43.76696" lon="7.13991">
        <ele>800.98</ele>
        <time>2013-05-09T12:31:41Z</time>
      </trkpt>
      <trkpt lat="43.76692" lon="7.1398">
        <ele>801.11</ele>
        <time>2013-05-09T12:31:53Z</time>
      </trkpt>
      <trkpt lat="43.76683" lon="7.13972">
        <ele>800.01</ele>
        <time>2013-05-09T12:32:42Z</time>
      </trkpt>
      <trkpt lat="43.76674" lon="7.13962">
        <ele>799.53</ele>
        <time>2013-05-09T12:32:54Z</time>
      </trkpt>
      <trkpt lat="43.7667" lon="7.1395">
        <ele>798.8</ele>
        <time>2013-05-09T12:33:12Z</time>
      </trkpt>
      <trkpt lat="43.76666" lon="7.13939">
        <ele>798.46</ele>
        <time>2013-05-09T12:33:21Z</time>
      </trkpt>
      <trkpt lat="43.76658" lon="7.13932">
        <ele>796.99</ele>
        <time>2013-05-09T12:34:02Z</time>
      </trkpt>
      <trkpt lat="43.7665" lon="7.13926">
        <ele>795.6</ele>
        <time>2013-05-09T12:34:20Z</time>
      </trkpt>
      <trkpt lat="43.76647" lon="7.13912">
        <ele>792.9</ele>
        <time>2013-05-09T12:35:20Z</time>
      </trkpt>
      <trkpt lat="43.76641" lon="7.13901">
        <ele>789.94</ele>
        <time>2013-05-09T12:35:44Z</time>
      </trkpt>
      <trkpt lat="43.76635" lon="7.13888">
        <ele>789.87</ele>
        <time>2013-05-09T12:35:56Z</time>
      </trkpt>
      <trkpt lat="43.76626" lon="7.13885">
        <ele>791.4</ele>
        <time>2013-05-09T12:36:17Z</time>
      </trkpt>
      <trkpt lat="43.76621" lon="7.13874">
        <ele>791.69</ele>
        <time>2013-05-09T12:36:32Z</time>
      </trkpt>
      <trkpt lat="43.76622" lon="7.1386">
        <ele>793.23</ele>
        <time>2013-05-09T12:37:41Z</time>
      </trkpt>
      <trkpt lat="43.76622" lon="7.13848">
        <ele>793.36</ele>
        <time>2013-05-09T12:37:56Z</time>
      </trkpt>
      <trkpt lat="43.76624" lon="7.13833">
        <ele>791.83</ele>
        <time>2013-05-09T12:38:17Z</time>
      </trkpt>
      <trkpt lat="43.76621" lon="7.13821">
        <ele>791.56</ele>
        <time>2013-05-09T12:38:32Z</time>
      </trkpt>
      <trkpt lat="43.76614" lon="7.1381">
        <ele>792.28</ele>
        <time>2013-05-09T12:38:47Z</time>
      </trkpt>
      <trkpt lat="43.76616" lon="7.13776">
        <ele>798.04</ele>
        <time>2013-05-09T12:39:33Z</time>
      </trkpt>
      <trkpt lat="43.76617" lon="7.13763">
        <ele>799.68</ele>
        <time>2013-05-09T12:39:51Z</time>
      </trkpt>
      <trkpt lat="43.76626" lon="7.13764">
        <ele>804.1</ele>
        <time>2013-05-09T12:40:47Z</time>
      </trkpt>
      <trkpt lat="43.76635" lon="7.13767">
        <ele>805.08</ele>
        <time>2013-05-09T12:41:02Z</time>
      </trkpt>
      <trkpt lat="43.76644" lon="7.13764">
        <ele>805.35</ele>
        <time>2013-05-09T12:41:14Z</time>
      </trkpt>
      <trkpt lat="43.76654" lon="7.1376">
        <ele>805.61</ele>
        <time>2013-05-09T12:41:23Z</time>
      </trkpt>
      <trkpt lat="43.76664" lon="7.1376">
        <ele>806.02</ele>
        <time>2013-05-09T12:41:35Z</time>
      </trkpt>
      <trkpt lat="43.76674" lon="7.13763">
        <ele>806.96</ele>
        <time>2013-05-09T12:41:50Z</time>
      </trkpt>
      <trkpt lat="43.76683" lon="7.13758">
        <ele>808.65</ele>
        <time>2013-05-09T12:42:11Z</time>
      </trkpt>
      <trkpt lat="43.76673" lon="7.1376">
        <ele>808.57</ele>
        <time>2013-05-09T12:47:52Z</time>
      </trkpt>
      <trkpt lat="43.76663" lon="7.13758">
        <ele>807.99</ele>
        <time>2013-05-09T12:48:04Z</time>
      </trkpt>
      <trkpt lat="43.76654" lon="7.13761">
        <ele>807.06</ele>
        <time>2013-05-09T12:48:13Z</time>
      </trkpt>
      <trkpt lat="43.76643" lon="7.13765">
        <ele>805.65</ele>
        <time>2013-05-09T12:48:28Z</time>
      </trkpt>
      <trkpt lat="43.76633" lon="7.13761">
        <ele>805.25</ele>
        <time>2013-05-09T12:48:43Z</time>
      </trkpt>
      <trkpt lat="43.76621" lon="7.1376">
        <ele>804.9</ele>
        <time>2013-05-09T12:48:55Z</time>
      </trkpt>
      <trkpt lat="43.76611" lon="7.13758">
        <ele>804.82</ele>
        <time>2013-05-09T12:49:01Z</time>
      </trkpt>
      <trkpt lat="43.76602" lon="7.13755">
        <ele>805.11</ele>
        <time>2013-05-09T12:49:10Z</time>
      </trkpt>
      <trkpt lat="43.76593" lon="7.1375">
        <ele>805.5</ele>
        <time>2013-05-09T12:49:19Z</time>
      </trkpt>
      <trkpt lat="43.76582" lon="7.13746">
        <ele>805.88</ele>
        <time>2013-05-09T12:49:31Z</time>
      </trkpt>
      <trkpt lat="43.76574" lon="7.13739">
        <ele>805.99</ele>
        <time>2013-05-09T12:49:37Z</time>
      </trkpt>
      <trkpt lat="43.76565" lon="7.13731">
        <ele>806.27</ele>
        <time>2013-05-09T12:49:46Z</time>
      </trkpt>
      <trkpt lat="43.76556" lon="7.13726">
        <ele>806.12</ele>
        <time>2013-05-09T12:49:55Z</time>
      </trkpt>
      <trkpt lat="43.76547" lon="7.13715">
        <ele>805.54</ele>
        <time>2013-05-09T12:50:07Z</time>
      </trkpt>
      <trkpt lat="43.76536" lon="7.13714">
        <ele>805.28</ele>
        <time>2013-05-09T12:50:22Z</time>
      </trkpt>
      <trkpt lat="43.76527" lon="7.13708">
        <ele>804.63</ele>
        <time>2013-05-09T12:51:16Z</time>
      </trkpt>
      <trkpt lat="43.76518" lon="7.13701">
        <ele>804.01</ele>
        <time>2013-05-09T12:51:22Z</time>
      </trkpt>
      <trkpt lat="43.76507" lon="7.13694">
        <ele>803.34</ele>
        <time>2013-05-09T12:51:34Z</time>
      </trkpt>
      <trkpt lat="43.765" lon="7.13686">
        <ele>803.8</ele>
        <time>2013-05-09T12:51:46Z</time>
      </trkpt>
      <trkpt lat="43.76495" lon="7.13672">
        <ele>804.43</ele>
        <time>2013-05-09T12:52:01Z</time>
      </trkpt>
      <trkpt lat="43.76486" lon="7.13666">
        <ele>805.05</ele>
        <time>2013-05-09T12:52:10Z</time>
      </trkpt>
      <trkpt lat="43.76477" lon="7.13666">
        <ele>805.62</ele>
        <time>2013-05-09T12:52:22Z</time>
      </trkpt>
      <trkpt lat="43.76468" lon="7.13674">
        <ele>806.03</ele>
        <time>2013-05-09T12:53:04Z</time>
      </trkpt>
      <trkpt lat="43.76464" lon="7.13662">
        <ele>806.51</ele>
        <time>2013-05-09T12:53:37Z</time>
      </trkpt>
      <trkpt lat="43.76454" lon="7.13666">
        <ele>807.09</ele>
        <time>2013-05-09T12:53:58Z</time>
      </trkpt>
      <trkpt lat="43.76445" lon="7.13658">
        <ele>807.55</ele>
        <time>2013-05-09T12:54:13Z</time>
      </trkpt>
      <trkpt lat="43.76436" lon="7.1365">
        <ele>807.95</ele>
        <time>2013-05-09T12:55:22Z</time>
      </trkpt>
      <trkpt lat="43.76428" lon="7.13657">
        <ele>807.58</ele>
        <time>2013-05-09T12:55:52Z</time>
      </trkpt>
      <trkpt lat="43.7642" lon="7.13659">
        <ele>805.79</ele>
        <time>2013-05-09T12:56:58Z</time>
      </trkpt>
      <trkpt lat="43.76411" lon="7.13654">
        <ele>805.4</ele>
        <time>2013-05-09T12:57:16Z</time>
      </trkpt>
      <trkpt lat="43.76403" lon="7.13648">
        <ele>804.35</ele>
        <time>2013-05-09T12:58:10Z</time>
      </trkpt>
      <trkpt lat="43.76412" lon="7.13658">
        <ele>802.45</ele>
        <time>2013-05-09T12:59:25Z</time>
      </trkpt>
      <trkpt lat="43.76417" lon="7.1367">
        <ele>802.13</ele>
        <time>2013-05-09T12:59:37Z</time>
      </trkpt>
      <trkpt lat="43.7641" lon="7.1368">
        <ele>801.9</ele>
        <time>2013-05-09T12:59:52Z</time>
      </trkpt>
      <trkpt lat="43.76402" lon="7.13688">
        <ele>801.7</ele>
        <time>2013-05-09T13:00:07Z</time>
      </trkpt>
      <trkpt lat="43.76391" lon="7.13694">
        <ele>800.73</ele>
        <time>2013-05-09T13:00:34Z</time>
      </trkpt>
      <trkpt lat="43.7637" lon="7.13683">
        <ele>797.4</ele>
        <time>2013-05-09T13:01:44Z</time>
      </trkpt>
      <trkpt lat="43.76361" lon="7.13674">
        <ele>797.18</ele>
        <time>2013-05-09T13:01:56Z</time>
      </trkpt>
      <trkpt lat="43.76352" lon="7.13672">
        <ele>795.93</ele>
        <time>2013-05-09T13:02:08Z</time>
      </trkpt>
      <trkpt lat="43.76341" lon="7.13667">
        <ele>793.84</ele>
        <time>2013-05-09T13:02:23Z</time>
      </trkpt>
      <trkpt lat="43.76335" lon="7.13675">
        <ele>791.83</ele>
        <time>2013-05-09T13:02:35Z</time>
      </trkpt>
      <trkpt lat="43.7633" lon="7.13686">
        <ele>788.47</ele>
        <time>2013-05-09T13:03:20Z</time>
      </trkpt>
      <trkpt lat="43.76321" lon="7.13688">
        <ele>790.08</ele>
        <time>2013-05-09T13:03:41Z</time>
      </trkpt>
      <trkpt lat="43.76314" lon="7.13679">
        <ele>788.99</ele>
        <time>2013-05-09T13:04:08Z</time>
      </trkpt>
      <trkpt lat="43.76303" lon="7.13677">
        <ele>788.53</ele>
        <time>2013-05-09T13:04:26Z</time>
      </trkpt>
      <trkpt lat="43.76295" lon="7.13667">
        <ele>789.08</ele>
        <time>2013-05-09T13:04:38Z</time>
      </trkpt>
      <trkpt lat="43.76288" lon="7.13658">
        <ele>789.32</ele>
        <time>2013-05-09T13:04:56Z</time>
      </trkpt>
      <trkpt lat="43.76281" lon="7.13668">
        <ele>789.15</ele>
        <time>2013-05-09T13:05:11Z</time>
      </trkpt>
      <trkpt lat="43.7628" lon="7.1368">
        <ele>788.45</ele>
        <time>2013-05-09T13:05:23Z</time>
      </trkpt>
      <trkpt lat="43.76276" lon="7.13694">
        <ele>786.7</ele>
        <time>2013-05-09T13:05:38Z</time>
      </trkpt>
      <trkpt lat="43.76274" lon="7.13706">
        <ele>785.5</ele>
        <time>2013-05-09T13:05:50Z</time>
      </trkpt>
      <trkpt lat="43.76272" lon="7.13719">
        <ele>783.99</ele>
        <time>2013-05-09T13:06:08Z</time>
      </trkpt>
      <trkpt lat="43.76271" lon="7.13706">
        <ele>782.57</ele>
        <time>2013-05-09T13:07:08Z</time>
      </trkpt>
      <trkpt lat="43.76271" lon="7.13692">
        <ele>779.53</ele>
        <time>2013-05-09T13:08:02Z</time>
      </trkpt>
      <trkpt lat="43.76273" lon="7.13679">
        <ele>778.31</ele>
        <time>2013-05-09T13:08:17Z</time>
      </trkpt>
      <trkpt lat="43.76277" lon="7.13665">
        <ele>777.39</ele>
        <time>2013-05-09T13:08:29Z</time>
      </trkpt>
      <trkpt lat="43.76271" lon="7.13647">
        <ele>774.29</ele>
        <time>2013-05-09T13:09:05Z</time>
      </trkpt>
      <trkpt lat="43.76265" lon="7.13636">
        <ele>774.1</ele>
        <time>2013-05-09T13:09:11Z</time>
      </trkpt>
      <trkpt lat="43.76253" lon="7.13631">
        <ele>773.33</ele>
        <time>2013-05-09T13:09:26Z</time>
      </trkpt>
      <trkpt lat="43.76246" lon="7.13623">
        <ele>771.33</ele>
        <time>2013-05-09T13:09:38Z</time>
      </trkpt>
      <trkpt lat="43.76241" lon="7.13612">
        <ele>768.92</ele>
        <time>2013-05-09T13:09:50Z</time>
      </trkpt>
      <trkpt lat="43.76232" lon="7.13607">
        <ele>766.11</ele>
        <time>2013-05-09T13:10:08Z</time>
      </trkpt>
      <trkpt lat="43.76222" lon="7.13604">
        <ele>764.71</ele>
        <time>2013-05-09T13:10:20Z</time>
      </trkpt>
      <trkpt lat="43.76214" lon="7.13597">
        <ele>763.67</ele>
        <time>2013-05-09T13:10:35Z</time>
      </trkpt>
      <trkpt lat="43.76203" lon="7.13598">
        <ele>762.89</ele>
        <time>2013-05-09T13:10:50Z</time>
      </trkpt>
      <trkpt lat="43.76191" lon="7.13593">
        <ele>762.15</ele>
        <time>2013-05-09T13:11:02Z</time>
      </trkpt>
      <trkpt lat="43.76183" lon="7.13587">
        <ele>761.85</ele>
        <time>2013-05-09T13:11:14Z</time>
      </trkpt>
      <trkpt lat="43.76174" lon="7.13581">
        <ele>766.32</ele>
        <time>2013-05-09T13:11:35Z</time>
      </trkpt>
      <trkpt lat="43.76165" lon="7.13575">
        <ele>769.53</ele>
        <time>2013-05-09T13:11:47Z</time>
      </trkpt>
      <trkpt lat="43.76155" lon="7.13573">
        <ele>771.41</ele>
        <time>2013-05-09T13:11:56Z</time>
      </trkpt>
      <trkpt lat="43.76146" lon="7.13575">
        <ele>773.21</ele>
        <time>2013-05-09T13:12:08Z</time>
      </trkpt>
      <trkpt lat="43.76138" lon="7.13583">
        <ele>774.97</ele>
        <time>2013-05-09T13:12:26Z</time>
      </trkpt>
      <trkpt lat="43.76131" lon="7.13593">
        <ele>776.17</ele>
        <time>2013-05-09T13:12:41Z</time>
      </trkpt>
      <trkpt lat="43.76125" lon="7.13605">
        <ele>776.56</ele>
        <time>2013-05-09T13:12:56Z</time>
      </trkpt>
      <trkpt lat="43.76119" lon="7.13615">
        <ele>776.62</ele>
        <time>2013-05-09T13:13:08Z</time>
      </trkpt>
      <trkpt lat="43.76118" lon="7.13629">
        <ele>776.35</ele>
        <time>2013-05-09T13:13:20Z</time>
      </trkpt>
      <trkpt lat="43.76118" lon="7.13642">
        <ele>775.91</ele>
        <time>2013-05-09T13:13:32Z</time>
      </trkpt>
      <trkpt lat="43.76123" lon="7.13655">
        <ele>774.06</ele>
        <time>2013-05-09T13:14:44Z</time>
      </trkpt>
      <trkpt lat="43.76124" lon="7.13668">
        <ele>774.02</ele>
        <time>2013-05-09T13:14:53Z</time>
      </trkpt>
      <trkpt lat="43.76125" lon="7.13681">
        <ele>774.12</ele>
        <time>2013-05-09T13:15:05Z</time>
      </trkpt>
      <trkpt lat="43.76125" lon="7.13693">
        <ele>774.36</ele>
        <time>2013-05-09T13:15:14Z</time>
      </trkpt>
      <trkpt lat="43.76128" lon="7.13707">
        <ele>774.85</ele>
        <time>2013-05-09T13:15:26Z</time>
      </trkpt>
      <trkpt lat="43.76133" lon="7.13721">
        <ele>775.54</ele>
        <time>2013-05-09T13:15:38Z</time>
      </trkpt>
      <trkpt lat="43.7613" lon="7.13738">
        <ele>775.76</ele>
        <time>2013-05-09T13:15:50Z</time>
      </trkpt>
      <trkpt lat="43.76128" lon="7.13753">
        <ele>775.56</ele>
        <time>2013-05-09T13:16:01Z</time>
      </trkpt>
      <trkpt lat="43.76128" lon="7.13766">
        <ele>775.72</ele>
        <time>2013-05-09T13:16:16Z</time>
      </trkpt>
      <trkpt lat="43.76125" lon="7.13779">
        <ele>775.93</ele>
        <time>2013-05-09T13:16:25Z</time>
      </trkpt>
      <trkpt lat="43.76127" lon="7.13794">
        <ele>776.41</ele>
        <time>2013-05-09T13:16:40Z</time>
      </trkpt>
      <trkpt lat="43.76128" lon="7.13806">
        <ele>776.24</ele>
        <time>2013-05-09T13:16:52Z</time>
      </trkpt>
      <trkpt lat="43.76123" lon="7.13817">
        <ele>774.7</ele>
        <time>2013-05-09T13:17:16Z</time>
      </trkpt>
      <trkpt lat="43.76129" lon="7.13827">
        <ele>771.04</ele>
        <time>2013-05-09T13:17:58Z</time>
      </trkpt>
      <trkpt lat="43.76131" lon="7.13841">
        <ele>767.96</ele>
        <time>2013-05-09T13:19:22Z</time>
      </trkpt>
      <trkpt lat="43.7613" lon="7.13853">
        <ele>767.78</ele>
        <time>2013-05-09T13:19:43Z</time>
      </trkpt>
      <trkpt lat="43.76129" lon="7.1387">
        <ele>768.18</ele>
        <time>2013-05-09T13:20:31Z</time>
      </trkpt>
      <trkpt lat="43.76139" lon="7.13871">
        <ele>767.32</ele>
        <time>2013-05-09T13:20:49Z</time>
      </trkpt>
      <trkpt lat="43.7613" lon="7.13869">
        <ele>766.35</ele>
        <time>2013-05-09T13:21:25Z</time>
      </trkpt>
      <trkpt lat="43.76122" lon="7.13865">
        <ele>766.04</ele>
        <time>2013-05-09T13:21:49Z</time>
      </trkpt>
      <trkpt lat="43.76131" lon="7.13871">
        <ele>765.05</ele>
        <time>2013-05-09T13:24:28Z</time>
      </trkpt>
      <trkpt lat="43.76133" lon="7.13856">
        <ele>765.96</ele>
        <time>2013-05-09T13:25:01Z</time>
      </trkpt>
      <trkpt lat="43.76138" lon="7.13846">
        <ele>766.37</ele>
        <time>2013-05-09T13:25:16Z</time>
      </trkpt>
      <trkpt lat="43.76147" lon="7.13844">
        <ele>767.4</ele>
        <time>2013-05-09T13:25:52Z</time>
      </trkpt>
      <trkpt lat="43.76138" lon="7.13852">
        <ele>766.5</ele>
        <time>2013-05-09T13:27:07Z</time>
      </trkpt>
      <trkpt lat="43.76136" lon="7.13865">
        <ele>765.83</ele>
        <time>2013-05-09T13:27:34Z</time>
      </trkpt>
      <trkpt lat="43.76142" lon="7.13875">
        <ele>765.36</ele>
        <time>2013-05-09T13:27:46Z</time>
      </trkpt>
      <trkpt lat="43.76148" lon="7.13887">
        <ele>764.26</ele>
        <time>2013-05-09T13:28:01Z</time>
      </trkpt>
      <trkpt lat="43.76155" lon="7.13897">
        <ele>762.96</ele>
        <time>2013-05-09T13:28:19Z</time>
      </trkpt>
      <trkpt lat="43.76161" lon="7.13908">
        <ele>761.86</ele>
        <time>2013-05-09T13:28:34Z</time>
      </trkpt>
      <trkpt lat="43.76154" lon="7.13916">
        <ele>759.34</ele>
        <time>2013-05-09T13:28:58Z</time>
      </trkpt>
      <trkpt lat="43.76145" lon="7.13924">
        <ele>757.25</ele>
        <time>2013-05-09T13:29:13Z</time>
      </trkpt>
      <trkpt lat="43.76137" lon="7.1393">
        <ele>754.5</ele>
        <time>2013-05-09T13:29:31Z</time>
      </trkpt>
      <trkpt lat="43.76127" lon="7.13938">
        <ele>752.04</ele>
        <time>2013-05-09T13:29:46Z</time>
      </trkpt>
      <trkpt lat="43.76118" lon="7.13944">
        <ele>749.88</ele>
        <time>2013-05-09T13:30:01Z</time>
      </trkpt>
      <trkpt lat="43.76109" lon="7.13952">
        <ele>748.19</ele>
        <time>2013-05-09T13:30:13Z</time>
      </trkpt>
      <trkpt lat="43.761" lon="7.13956">
        <ele>745.71</ele>
        <time>2013-05-09T13:30:31Z</time>
      </trkpt>
      <trkpt lat="43.76092" lon="7.13962">
        <ele>743.89</ele>
        <time>2013-05-09T13:30:43Z</time>
      </trkpt>
      <trkpt lat="43.76082" lon="7.13968">
        <ele>740.58</ele>
        <time>2013-05-09T13:31:01Z</time>
      </trkpt>
      <trkpt lat="43.76073" lon="7.13976">
        <ele>738.68</ele>
        <time>2013-05-09T13:31:13Z</time>
      </trkpt>
      <trkpt lat="43.76066" lon="7.13983">
        <ele>736.92</ele>
        <time>2013-05-09T13:31:25Z</time>
      </trkpt>
      <trkpt lat="43.76057" lon="7.13991">
        <ele>734.68</ele>
        <time>2013-05-09T13:31:43Z</time>
      </trkpt>
      <trkpt lat="43.76061" lon="7.14002">
        <ele>734.07</ele>
        <time>2013-05-09T13:32:33Z</time>
      </trkpt>
      <trkpt lat="43.76051" lon="7.14009">
        <ele>733.17</ele>
        <time>2013-05-09T13:32:45Z</time>
      </trkpt>
      <trkpt lat="43.76044" lon="7.14016">
        <ele>732.15</ele>
        <time>2013-05-09T13:32:57Z</time>
      </trkpt>
      <trkpt lat="43.76034" lon="7.14021">
        <ele>729.92</ele>
        <time>2013-05-09T13:33:15Z</time>
      </trkpt>
      <trkpt lat="43.76022" lon="7.14027">
        <ele>726.41</ele>
        <time>2013-05-09T13:33:33Z</time>
      </trkpt>
      <trkpt lat="43.76012" lon="7.14032">
        <ele>722.95</ele>
        <time>2013-05-09T13:33:48Z</time>
      </trkpt>
      <trkpt lat="43.76002" lon="7.14038">
        <ele>720.36</ele>
        <time>2013-05-09T13:34:00Z</time>
      </trkpt>
      <trkpt lat="43.75993" lon="7.14043">
        <ele>717.31</ele>
        <time>2013-05-09T13:34:15Z</time>
      </trkpt>
      <trkpt lat="43.75986" lon="7.14055">
        <ele>715.24</ele>
        <time>2013-05-09T13:34:27Z</time>
      </trkpt>
      <trkpt lat="43.75981" lon="7.14065">
        <ele>713.78</ele>
        <time>2013-05-09T13:34:36Z</time>
      </trkpt>
      <trkpt lat="43.75974" lon="7.14076">
        <ele>711.68</ele>
        <time>2013-05-09T13:34:51Z</time>
      </trkpt>
      <trkpt lat="43.75967" lon="7.14087">
        <ele>709.48</ele>
        <time>2013-05-09T13:35:06Z</time>
      </trkpt>
      <trkpt lat="43.75959" lon="7.14096">
        <ele>707.37</ele>
        <time>2013-05-09T13:35:18Z</time>
      </trkpt>
      <trkpt lat="43.75951" lon="7.14106">
        <ele>704.55</ele>
        <time>2013-05-09T13:35:36Z</time>
      </trkpt>
      <trkpt lat="43.75945" lon="7.14115">
        <ele>703.02</ele>
        <time>2013-05-09T13:35:48Z</time>
      </trkpt>
      <trkpt lat="43.75936" lon="7.14125">
        <ele>701.23</ele>
        <time>2013-05-09T13:36:06Z</time>
      </trkpt>
      <trkpt lat="43.75928" lon="7.14135">
        <ele>699.41</ele>
        <time>2013-05-09T13:36:21Z</time>
      </trkpt>
      <trkpt lat="43.7594" lon="7.14139">
        <ele>695.95</ele>
        <time>2013-05-09T13:36:42Z</time>
      </trkpt>
      <trkpt lat="43.75949" lon="7.14141">
        <ele>694.85</ele>
        <time>2013-05-09T13:36:57Z</time>
      </trkpt>
      <trkpt lat="43.75941" lon="7.14149">
        <ele>694.64</ele>
        <time>2013-05-09T13:37:21Z</time>
      </trkpt>
      <trkpt lat="43.75918" lon="7.14169">
        <ele>688.6</ele>
        <time>2013-05-09T13:38:01Z</time>
      </trkpt>
      <trkpt lat="43.7591" lon="7.14177">
        <ele>687.46</ele>
        <time>2013-05-09T13:38:16Z</time>
      </trkpt>
      <trkpt lat="43.75901" lon="7.14185">
        <ele>686.48</ele>
        <time>2013-05-09T13:38:28Z</time>
      </trkpt>
      <trkpt lat="43.75893" lon="7.14194">
        <ele>685.89</ele>
        <time>2013-05-09T13:38:40Z</time>
      </trkpt>
      <trkpt lat="43.75885" lon="7.14202">
        <ele>684.66</ele>
        <time>2013-05-09T13:38:52Z</time>
      </trkpt>
      <trkpt lat="43.75877" lon="7.14209">
        <ele>682.74</ele>
        <time>2013-05-09T13:39:04Z</time>
      </trkpt>
      <trkpt lat="43.75868" lon="7.14216">
        <ele>679.24</ele>
        <time>2013-05-09T13:39:22Z</time>
      </trkpt>
      <trkpt lat="43.7586" lon="7.14224">
        <ele>676.57</ele>
        <time>2013-05-09T13:39:52Z</time>
      </trkpt>
      <trkpt lat="43.75852" lon="7.14234">
        <ele>674.72</ele>
        <time>2013-05-09T13:40:10Z</time>
      </trkpt>
      <trkpt lat="43.75843" lon="7.14244">
        <ele>673</ele>
        <time>2013-05-09T13:40:25Z</time>
      </trkpt>
      <trkpt lat="43.75834" lon="7.14252">
        <ele>671.86</ele>
        <time>2013-05-09T13:40:34Z</time>
      </trkpt>
      <trkpt lat="43.75824" lon="7.1426">
        <ele>667.12</ele>
        <time>2013-05-09T13:40:58Z</time>
      </trkpt>
      <trkpt lat="43.75819" lon="7.1427">
        <ele>660.87</ele>
        <time>2013-05-09T13:41:34Z</time>
      </trkpt>
      <trkpt lat="43.75811" lon="7.14276">
        <ele>658.87</ele>
        <time>2013-05-09T13:41:55Z</time>
      </trkpt>
      <trkpt lat="43.75803" lon="7.14284">
        <ele>658.21</ele>
        <time>2013-05-09T13:42:07Z</time>
      </trkpt>
      <trkpt lat="43.75795" lon="7.14291">
        <ele>657.99</ele>
        <time>2013-05-09T13:42:19Z</time>
      </trkpt>
      <trkpt lat="43.7579" lon="7.14303">
        <ele>657.22</ele>
        <time>2013-05-09T13:42:34Z</time>
      </trkpt>
      <trkpt lat="43.75782" lon="7.1431">
        <ele>654.39</ele>
        <time>2013-05-09T13:42:52Z</time>
      </trkpt>
      <trkpt lat="43.7577" lon="7.14318">
        <ele>652.29</ele>
        <time>2013-05-09T13:43:07Z</time>
      </trkpt>
      <trkpt lat="43.75759" lon="7.1432">
        <ele>649.12</ele>
        <time>2013-05-09T13:43:28Z</time>
      </trkpt>
      <trkpt lat="43.7575" lon="7.14323">
        <ele>647.01</ele>
        <time>2013-05-09T13:43:40Z</time>
      </trkpt>
      <trkpt lat="43.75739" lon="7.14326">
        <ele>644.12</ele>
        <time>2013-05-09T13:43:59Z</time>
      </trkpt>
      <trkpt lat="43.75728" lon="7.14322">
        <ele>640.69</ele>
        <time>2013-05-09T13:44:20Z</time>
      </trkpt>
      <trkpt lat="43.75718" lon="7.14319">
        <ele>639.53</ele>
        <time>2013-05-09T13:44:41Z</time>
      </trkpt>
      <trkpt lat="43.75708" lon="7.14316">
        <ele>639.15</ele>
        <time>2013-05-09T13:44:50Z</time>
      </trkpt>
      <trkpt lat="43.75698" lon="7.14312">
        <ele>638.89</ele>
        <time>2013-05-09T13:45:02Z</time>
      </trkpt>
      <trkpt lat="43.75688" lon="7.14312">
        <ele>638.67</ele>
        <time>2013-05-09T13:45:17Z</time>
      </trkpt>
      <trkpt lat="43.75677" lon="7.14314">
        <ele>637.53</ele>
        <time>2013-05-09T13:45:32Z</time>
      </trkpt>
      <trkpt lat="43.75668" lon="7.14314">
        <ele>636.24</ele>
        <time>2013-05-09T13:45:44Z</time>
      </trkpt>
      <trkpt lat="43.75658" lon="7.14318">
        <ele>635.26</ele>
        <time>2013-05-09T13:45:59Z</time>
      </trkpt>
      <trkpt lat="43.75647" lon="7.14318">
        <ele>635.18</ele>
        <time>2013-05-09T13:46:14Z</time>
      </trkpt>
      <trkpt lat="43.75638" lon="7.14321">
        <ele>634.95</ele>
        <time>2013-05-09T13:46:29Z</time>
      </trkpt>
      <trkpt lat="43.75628" lon="7.14323">
        <ele>634.02</ele>
        <time>2013-05-09T13:46:47Z</time>
      </trkpt>
      <trkpt lat="43.75619" lon="7.14324">
        <ele>633.04</ele>
        <time>2013-05-09T13:46:59Z</time>
      </trkpt>
      <trkpt lat="43.7561" lon="7.14326">
        <ele>632.22</ele>
        <time>2013-05-09T13:47:11Z</time>
      </trkpt>
      <trkpt lat="43.756" lon="7.1433">
        <ele>630.01</ele>
        <time>2013-05-09T13:47:29Z</time>
      </trkpt>
      <trkpt lat="43.75591" lon="7.14332">
        <ele>628.22</ele>
        <time>2013-05-09T13:47:41Z</time>
      </trkpt>
      <trkpt lat="43.75581" lon="7.14333">
        <ele>626.75</ele>
        <time>2013-05-09T13:47:53Z</time>
      </trkpt>
      <trkpt lat="43.75571" lon="7.14333">
        <ele>625.49</ele>
        <time>2013-05-09T13:48:05Z</time>
      </trkpt>
      <trkpt lat="43.75561" lon="7.14332">
        <ele>623.41</ele>
        <time>2013-05-09T13:48:20Z</time>
      </trkpt>
      <trkpt lat="43.75552" lon="7.14331">
        <ele>621.5</ele>
        <time>2013-05-09T13:48:32Z</time>
      </trkpt>
      <trkpt lat="43.75542" lon="7.14332">
        <ele>619.2</ele>
        <time>2013-05-09T13:48:47Z</time>
      </trkpt>
      <trkpt lat="43.75533" lon="7.14335">
        <ele>616.63</ele>
        <time>2013-05-09T13:49:05Z</time>
      </trkpt>
      <trkpt lat="43.75523" lon="7.1434">
        <ele>616.75</ele>
        <time>2013-05-09T13:49:20Z</time>
      </trkpt>
      <trkpt lat="43.75514" lon="7.14338">
        <ele>617.48</ele>
        <time>2013-05-09T13:49:29Z</time>
      </trkpt>
      <trkpt lat="43.75504" lon="7.14335">
        <ele>619.09</ele>
        <time>2013-05-09T13:49:44Z</time>
      </trkpt>
      <trkpt lat="43.75495" lon="7.1433">
        <ele>619.55</ele>
        <time>2013-05-09T13:49:59Z</time>
      </trkpt>
      <trkpt lat="43.75484" lon="7.14328">
        <ele>618.86</ele>
        <time>2013-05-09T13:50:11Z</time>
      </trkpt>
      <trkpt lat="43.75476" lon="7.14323">
        <ele>617.97</ele>
        <time>2013-05-09T13:50:23Z</time>
      </trkpt>
      <trkpt lat="43.75466" lon="7.14321">
        <ele>616.04</ele>
        <time>2013-05-09T13:50:38Z</time>
      </trkpt>
      <trkpt lat="43.75457" lon="7.14314">
        <ele>614.39</ele>
        <time>2013-05-09T13:50:56Z</time>
      </trkpt>
      <trkpt lat="43.75449" lon="7.14307">
        <ele>613.31</ele>
        <time>2013-05-09T13:51:08Z</time>
      </trkpt>
      <trkpt lat="43.7544" lon="7.14301">
        <ele>611.98</ele>
        <time>2013-05-09T13:51:20Z</time>
      </trkpt>
      <trkpt lat="43.75431" lon="7.14295">
        <ele>610.66</ele>
        <time>2013-05-09T13:51:35Z</time>
      </trkpt>
      <trkpt lat="43.75421" lon="7.1429">
        <ele>609.68</ele>
        <time>2013-05-09T13:51:50Z</time>
      </trkpt>
      <trkpt lat="43.75412" lon="7.14284">
        <ele>608.1</ele>
        <time>2013-05-09T13:52:02Z</time>
      </trkpt>
      <trkpt lat="43.75402" lon="7.14278">
        <ele>606.53</ele>
        <time>2013-05-09T13:52:14Z</time>
      </trkpt>
      <trkpt lat="43.75394" lon="7.1427">
        <ele>604.76</ele>
        <time>2013-05-09T13:52:26Z</time>
      </trkpt>
      <trkpt lat="43.75385" lon="7.14271">
        <ele>602.39</ele>
        <time>2013-05-09T13:52:47Z</time>
      </trkpt>
      <trkpt lat="43.75375" lon="7.14268">
        <ele>599.57</ele>
        <time>2013-05-09T13:53:29Z</time>
      </trkpt>
      <trkpt lat="43.75364" lon="7.14267">
        <ele>598.89</ele>
        <time>2013-05-09T13:53:44Z</time>
      </trkpt>
      <trkpt lat="43.75354" lon="7.14268">
        <ele>599.11</ele>
        <time>2013-05-09T13:53:59Z</time>
      </trkpt>
      <trkpt lat="43.75357" lon="7.14281">
        <ele>596.87</ele>
        <time>2013-05-09T13:54:23Z</time>
      </trkpt>
      <trkpt lat="43.75365" lon="7.14289">
        <ele>592.12</ele>
        <time>2013-05-09T13:54:35Z</time>
      </trkpt>
      <trkpt lat="43.75374" lon="7.14297">
        <ele>586.35</ele>
        <time>2013-05-09T13:54:50Z</time>
      </trkpt>
      <trkpt lat="43.75381" lon="7.14305">
        <ele>581.55</ele>
        <time>2013-05-09T13:55:05Z</time>
      </trkpt>
      <trkpt lat="43.7537" lon="7.14303">
        <ele>572.69</ele>
        <time>2013-05-09T13:55:50Z</time>
      </trkpt>
      <trkpt lat="43.75362" lon="7.14298">
        <ele>571.66</ele>
        <time>2013-05-09T13:56:02Z</time>
      </trkpt>
      <trkpt lat="43.75353" lon="7.14293">
        <ele>570.37</ele>
        <time>2013-05-09T13:56:17Z</time>
      </trkpt>
      <trkpt lat="43.75343" lon="7.1429">
        <ele>568.59</ele>
        <time>2013-05-09T13:56:32Z</time>
      </trkpt>
      <trkpt lat="43.75333" lon="7.14286">
        <ele>565.93</ele>
        <time>2013-05-09T13:56:50Z</time>
      </trkpt>
      <trkpt lat="43.75325" lon="7.14281">
        <ele>562.53</ele>
        <time>2013-05-09T13:57:05Z</time>
      </trkpt>
      <trkpt lat="43.75315" lon="7.14276">
        <ele>560.47</ele>
        <time>2013-05-09T13:57:17Z</time>
      </trkpt>
      <trkpt lat="43.75308" lon="7.14269">
        <ele>559.43</ele>
        <time>2013-05-09T13:57:26Z</time>
      </trkpt>
      <trkpt lat="43.753" lon="7.14259">
        <ele>558.72</ele>
        <time>2013-05-09T13:57:38Z</time>
      </trkpt>
      <trkpt lat="43.75291" lon="7.14252">
        <ele>558.05</ele>
        <time>2013-05-09T13:57:50Z</time>
      </trkpt>
      <trkpt lat="43.75282" lon="7.14249">
        <ele>557.44</ele>
        <time>2013-05-09T13:58:02Z</time>
      </trkpt>
      <trkpt lat="43.75273" lon="7.14249">
        <ele>556.61</ele>
        <time>2013-05-09T13:58:14Z</time>
      </trkpt>
      <trkpt lat="43.75263" lon="7.1425">
        <ele>556.25</ele>
        <time>2013-05-09T13:58:23Z</time>
      </trkpt>
      <trkpt lat="43.75254" lon="7.14251">
        <ele>555.75</ele>
        <time>2013-05-09T13:58:35Z</time>
      </trkpt>
      <trkpt lat="43.75243" lon="7.1425">
        <ele>555.39</ele>
        <time>2013-05-09T13:58:47Z</time>
      </trkpt>
      <trkpt lat="43.75233" lon="7.14247">
        <ele>555.85</ele>
        <time>2013-05-09T13:59:02Z</time>
      </trkpt>
      <trkpt lat="43.75223" lon="7.14244">
        <ele>555.87</ele>
        <time>2013-05-09T13:59:17Z</time>
      </trkpt>
      <trkpt lat="43.75213" lon="7.14242">
        <ele>554.73</ele>
        <time>2013-05-09T13:59:29Z</time>
      </trkpt>
      <trkpt lat="43.75203" lon="7.14233">
        <ele>552.8</ele>
        <time>2013-05-09T13:59:44Z</time>
      </trkpt>
      <trkpt lat="43.75195" lon="7.14224">
        <ele>551.66</ele>
        <time>2013-05-09T13:59:56Z</time>
      </trkpt>
      <trkpt lat="43.75186" lon="7.14216">
        <ele>550.01</ele>
        <time>2013-05-09T14:00:08Z</time>
      </trkpt>
      <trkpt lat="43.75176" lon="7.14212">
        <ele>546.63</ele>
        <time>2013-05-09T14:00:23Z</time>
      </trkpt>
      <trkpt lat="43.75167" lon="7.14206">
        <ele>542.87</ele>
        <time>2013-05-09T14:00:38Z</time>
      </trkpt>
      <trkpt lat="43.75155" lon="7.14198">
        <ele>540.84</ele>
        <time>2013-05-09T14:00:50Z</time>
      </trkpt>
      <trkpt lat="43.75144" lon="7.14191">
        <ele>539.81</ele>
        <time>2013-05-09T14:01:02Z</time>
      </trkpt>
      <trkpt lat="43.75132" lon="7.14188">
        <ele>539.19</ele>
        <time>2013-05-09T14:01:14Z</time>
      </trkpt>
      <trkpt lat="43.75122" lon="7.14184">
        <ele>538.47</ele>
        <time>2013-05-09T14:01:26Z</time>
      </trkpt>
      <trkpt lat="43.75113" lon="7.14182">
        <ele>537.45</ele>
        <time>2013-05-09T14:01:41Z</time>
      </trkpt>
      <trkpt lat="43.75103" lon="7.14179">
        <ele>535.44</ele>
        <time>2013-05-09T14:01:57Z</time>
      </trkpt>
      <trkpt lat="43.75093" lon="7.14175">
        <ele>533.78</ele>
        <time>2013-05-09T14:02:09Z</time>
      </trkpt>
      <trkpt lat="43.75084" lon="7.14172">
        <ele>532.59</ele>
        <time>2013-05-09T14:02:21Z</time>
      </trkpt>
      <trkpt lat="43.75074" lon="7.1417">
        <ele>531.67</ele>
        <time>2013-05-09T14:02:33Z</time>
      </trkpt>
      <trkpt lat="43.75064" lon="7.14166">
        <ele>530.59</ele>
        <time>2013-05-09T14:02:45Z</time>
      </trkpt>
      <trkpt lat="43.75055" lon="7.14164">
        <ele>529.43</ele>
        <time>2013-05-09T14:03:00Z</time>
      </trkpt>
      <trkpt lat="43.75045" lon="7.14162">
        <ele>526.27</ele>
        <time>2013-05-09T14:03:24Z</time>
      </trkpt>
      <trkpt lat="43.75045" lon="7.14175">
        <ele>521.89</ele>
        <time>2013-05-09T14:04:09Z</time>
      </trkpt>
      <trkpt lat="43.75052" lon="7.14166">
        <ele>519.56</ele>
        <time>2013-05-09T14:05:21Z</time>
      </trkpt>
      <trkpt lat="43.75043" lon="7.14164">
        <ele>517.66</ele>
        <time>2013-05-09T14:06:09Z</time>
      </trkpt>
      <trkpt lat="43.75033" lon="7.14156">
        <ele>516.55</ele>
        <time>2013-05-09T14:06:21Z</time>
      </trkpt>
      <trkpt lat="43.75021" lon="7.14153">
        <ele>515.85</ele>
        <time>2013-05-09T14:06:33Z</time>
      </trkpt>
      <trkpt lat="43.7501" lon="7.14151">
        <ele>514.78</ele>
        <time>2013-05-09T14:06:45Z</time>
      </trkpt>
      <trkpt lat="43.75001" lon="7.14145">
        <ele>514.46</ele>
        <time>2013-05-09T14:06:51Z</time>
      </trkpt>
      <trkpt lat="43.74991" lon="7.14142">
        <ele>513.62</ele>
        <time>2013-05-09T14:07:03Z</time>
      </trkpt>
      <trkpt lat="43.7498" lon="7.14146">
        <ele>511.08</ele>
        <time>2013-05-09T14:07:18Z</time>
      </trkpt>
      <trkpt lat="43.7497" lon="7.14147">
        <ele>508.74</ele>
        <time>2013-05-09T14:07:30Z</time>
      </trkpt>
      <trkpt lat="43.74958" lon="7.1415">
        <ele>506.11</ele>
        <time>2013-05-09T14:07:42Z</time>
      </trkpt>
      <trkpt lat="43.74949" lon="7.14157">
        <ele>503.07</ele>
        <time>2013-05-09T14:07:57Z</time>
      </trkpt>
      <trkpt lat="43.74943" lon="7.14168">
        <ele>499.55</ele>
        <time>2013-05-09T14:08:15Z</time>
      </trkpt>
      <trkpt lat="43.74935" lon="7.14177">
        <ele>495.02</ele>
        <time>2013-05-09T14:08:39Z</time>
      </trkpt>
      <trkpt lat="43.74929" lon="7.14186">
        <ele>491.97</ele>
        <time>2013-05-09T14:08:57Z</time>
      </trkpt>
      <trkpt lat="43.74921" lon="7.14192">
        <ele>490.32</ele>
        <time>2013-05-09T14:09:09Z</time>
      </trkpt>
      <trkpt lat="43.74929" lon="7.14198">
        <ele>488.96</ele>
        <time>2013-05-09T14:09:21Z</time>
      </trkpt>
      <trkpt lat="43.74919" lon="7.14202">
        <ele>486.25</ele>
        <time>2013-05-09T14:09:45Z</time>
      </trkpt>
      <trkpt lat="43.74909" lon="7.14201">
        <ele>484.7</ele>
        <time>2013-05-09T14:09:57Z</time>
      </trkpt>
      <trkpt lat="43.74898" lon="7.14205">
        <ele>483.19</ele>
        <time>2013-05-09T14:10:09Z</time>
      </trkpt>
      <trkpt lat="43.749" lon="7.14217">
        <ele>481.77</ele>
        <time>2013-05-09T14:10:21Z</time>
      </trkpt>
      <trkpt lat="43.7489" lon="7.14221">
        <ele>479.28</ele>
        <time>2013-05-09T14:10:45Z</time>
      </trkpt>
      <trkpt lat="43.74881" lon="7.14219">
        <ele>478.57</ele>
        <time>2013-05-09T14:10:57Z</time>
      </trkpt>
      <trkpt lat="43.74871" lon="7.14224">
        <ele>476.81</ele>
        <time>2013-05-09T14:11:12Z</time>
      </trkpt>
      <trkpt lat="43.7486" lon="7.14225">
        <ele>474.2</ele>
        <time>2013-05-09T14:11:27Z</time>
      </trkpt>
      <trkpt lat="43.7485" lon="7.14224">
        <ele>472.77</ele>
        <time>2013-05-09T14:11:36Z</time>
      </trkpt>
      <trkpt lat="43.7484" lon="7.14225">
        <ele>470.21</ele>
        <time>2013-05-09T14:11:51Z</time>
      </trkpt>
      <trkpt lat="43.74838" lon="7.14238">
        <ele>468.54</ele>
        <time>2013-05-09T14:12:09Z</time>
      </trkpt>
      <trkpt lat="43.74842" lon="7.14251">
        <ele>468.95</ele>
        <time>2013-05-09T14:12:27Z</time>
      </trkpt>
      <trkpt lat="43.74841" lon="7.14265">
        <ele>469.36</ele>
        <time>2013-05-09T14:12:39Z</time>
      </trkpt>
      <trkpt lat="43.74836" lon="7.14276">
        <ele>466.17</ele>
        <time>2013-05-09T14:13:00Z</time>
      </trkpt>
      <trkpt lat="43.74828" lon="7.14287">
        <ele>463.18</ele>
        <time>2013-05-09T14:13:21Z</time>
      </trkpt>
      <trkpt lat="43.74825" lon="7.14299">
        <ele>461.25</ele>
        <time>2013-05-09T14:13:42Z</time>
      </trkpt>
      <trkpt lat="43.74833" lon="7.14306">
        <ele>459.45</ele>
        <time>2013-05-09T14:14:36Z</time>
      </trkpt>
      <trkpt lat="43.7484" lon="7.14319">
        <ele>458.35</ele>
        <time>2013-05-09T14:14:45Z</time>
      </trkpt>
      <trkpt lat="43.74844" lon="7.14333">
        <ele>456.37</ele>
        <time>2013-05-09T14:14:54Z</time>
      </trkpt>
      <trkpt lat="43.74842" lon="7.14347">
        <ele>452.91</ele>
        <time>2013-05-09T14:15:21Z</time>
      </trkpt>
      <trkpt lat="43.74845" lon="7.14359">
        <ele>452.91</ele>
        <time>2013-05-09T14:15:39Z</time>
      </trkpt>
      <trkpt lat="43.74841" lon="7.1437">
        <ele>444.83</ele>
        <time>2013-05-09T14:19:04Z</time>
      </trkpt>
      <trkpt lat="43.74847" lon="7.14361">
        <ele>441.07</ele>
        <time>2013-05-09T14:21:46Z</time>
      </trkpt>
      <trkpt lat="43.74856" lon="7.14354">
        <ele>434.98</ele>
        <time>2013-05-09T14:22:19Z</time>
      </trkpt>
      <trkpt lat="43.74865" lon="7.14356">
        <ele>432.91</ele>
        <time>2013-05-09T14:22:37Z</time>
      </trkpt>
      <trkpt lat="43.74875" lon="7.14355">
        <ele>432.17</ele>
        <time>2013-05-09T14:22:55Z</time>
      </trkpt>
      <trkpt lat="43.74888" lon="7.14362">
        <ele>434.27</ele>
        <time>2013-05-09T14:23:13Z</time>
      </trkpt>
      <trkpt lat="43.74897" lon="7.14368">
        <ele>434.88</ele>
        <time>2013-05-09T14:23:22Z</time>
      </trkpt>
      <trkpt lat="43.74904" lon="7.14375">
        <ele>435.43</ele>
        <time>2013-05-09T14:23:31Z</time>
      </trkpt>
      <trkpt lat="43.74915" lon="7.14375">
        <ele>437.98</ele>
        <time>2013-05-09T14:23:46Z</time>
      </trkpt>
      <trkpt lat="43.74926" lon="7.1438">
        <ele>440.69</ele>
        <time>2013-05-09T14:23:58Z</time>
      </trkpt>
      <trkpt lat="43.74936" lon="7.14385">
        <ele>442.35</ele>
        <time>2013-05-09T14:24:10Z</time>
      </trkpt>
      <trkpt lat="43.74946" lon="7.14392">
        <ele>443.31</ele>
        <time>2013-05-09T14:24:22Z</time>
      </trkpt>
      <trkpt lat="43.74957" lon="7.14393">
        <ele>442.64</ele>
        <time>2013-05-09T14:24:31Z</time>
      </trkpt>
      <trkpt lat="43.74968" lon="7.14397">
        <ele>440.23</ele>
        <time>2013-05-09T14:24:43Z</time>
      </trkpt>
      <trkpt lat="43.74981" lon="7.14402">
        <ele>435.12</ele>
        <time>2013-05-09T14:24:55Z</time>
      </trkpt>
      <trkpt lat="43.74989" lon="7.14408">
        <ele>431.8</ele>
        <time>2013-05-09T14:25:04Z</time>
      </trkpt>
      <trkpt lat="43.75001" lon="7.14411">
        <ele>428.62</ele>
        <time>2013-05-09T14:25:13Z</time>
      </trkpt>
      <trkpt lat="43.74991" lon="7.14416">
        <ele>425.65</ele>
        <time>2013-05-09T14:25:28Z</time>
      </trkpt>
      <trkpt lat="43.74987" lon="7.14428">
        <ele>424.14</ele>
        <time>2013-05-09T14:25:43Z</time>
      </trkpt>
      <trkpt lat="43.74986" lon="7.14442">
        <ele>422.93</ele>
        <time>2013-05-09T14:25:58Z</time>
      </trkpt>
      <trkpt lat="43.74979" lon="7.1445">
        <ele>419.95</ele>
        <time>2013-05-09T14:26:25Z</time>
      </trkpt>
      <trkpt lat="43.74977" lon="7.14464">
        <ele>418.68</ele>
        <time>2013-05-09T14:26:40Z</time>
      </trkpt>
      <trkpt lat="43.74968" lon="7.14459">
        <ele>411.96</ele>
        <time>2013-05-09T14:27:34Z</time>
      </trkpt>
      <trkpt lat="43.74959" lon="7.14464">
        <ele>410.83</ele>
        <time>2013-05-09T14:27:40Z</time>
      </trkpt>
      <trkpt lat="43.74948" lon="7.14466">
        <ele>410.84</ele>
        <time>2013-05-09T14:27:49Z</time>
      </trkpt>
      <trkpt lat="43.74939" lon="7.14462">
        <ele>412.2</ele>
        <time>2013-05-09T14:28:01Z</time>
      </trkpt>
      <trkpt lat="43.74929" lon="7.1446">
        <ele>413.33</ele>
        <time>2013-05-09T14:28:10Z</time>
      </trkpt>
      <trkpt lat="43.74918" lon="7.14457">
        <ele>414.61</ele>
        <time>2013-05-09T14:28:22Z</time>
      </trkpt>
      <trkpt lat="43.74907" lon="7.14452">
        <ele>415.28</ele>
        <time>2013-05-09T14:28:34Z</time>
      </trkpt>
      <trkpt lat="43.74897" lon="7.14453">
        <ele>415.37</ele>
        <time>2013-05-09T14:28:43Z</time>
      </trkpt>
      <trkpt lat="43.74888" lon="7.14458">
        <ele>415.44</ele>
        <time>2013-05-09T14:28:52Z</time>
      </trkpt>
      <trkpt lat="43.74878" lon="7.14461">
        <ele>414.47</ele>
        <time>2013-05-09T14:29:07Z</time>
      </trkpt>
      <trkpt lat="43.7488" lon="7.14475">
        <ele>413.03</ele>
        <time>2013-05-09T14:29:25Z</time>
      </trkpt>
      <trkpt lat="43.74888" lon="7.14469">
        <ele>410.68</ele>
        <time>2013-05-09T14:29:43Z</time>
      </trkpt>
      <trkpt lat="43.74883" lon="7.14481">
        <ele>409.36</ele>
        <time>2013-05-09T14:30:01Z</time>
      </trkpt>
    </trkseg>
  </trk>
</gpx>